Observation data for Stinnett on 01/18/2019      Previous  Date  Next       Current Mesonet Observations  Soil Data  Daily Summary Page  Observations in Plain Language
KST3 180600Z 21009KT 07/M03 A2993 RMK A01 T00661026  RH  052%=      5-min Rain = 0
KST3 180601Z 21010KT 07/M03 A2993 RMK A01 T00651026  RH  052%=      5-min Rain = 0
KST3 180602Z 21010KT 06/M03 A2993 RMK A01 T00641026  RH  053%=      5-min Rain = 0
KST3 180603Z 21010KT 06/M03 A2993 RMK A01 T00631026  RH  053%=      5-min Rain = 0
KST3 180604Z 21010KT 06/M03 A2993 RMK A01 T00631025  RH  053%=      5-min Rain = 0
KST3 180605Z 21010KT 06/M03 A2993 RMK A01 T00641025  RH  053%=      5-min Rain = 0
KST3 180606Z 20010KT 06/M03 A2993 RMK A01 T00641025  RH  053%=      5-min Rain = 0
KST3 180607Z 20010KT 06/M03 A2993 RMK A01 T00641025  RH  053%=      5-min Rain = 0
KST3 180608Z 20010KT 06/M03 A2993 RMK A01 T00641025  RH  053%=      5-min Rain = 0
KST3 180609Z 20010KT 06/M03 A2993 RMK A01 T00641025  RH  053%=      5-min Rain = 0
KST3 180610Z 20010KT 07/M02 A2992 RMK A01 T00651024  RH  053%=      5-min Rain = 0
KST3 180611Z 20010KT 07/M03 A2992 RMK A01 T00661025  RH  052%=      5-min Rain = 0
KST3 180612Z 20010KT 07/M03 A2993 RMK A01 T00661025  RH  052%=      5-min Rain = 0
KST3 180613Z 20010KT 07/M03 A2992 RMK A01 T00671025  RH  052%=      5-min Rain = 0
KST3 180614Z 20009KT 07/M03 A2992 RMK A01 T00671025  RH  052%=      5-min Rain = 0
KST3 180615Z 20010KT 07/M03 A2992 RMK A01 T00671026  RH  052%=      5-min Rain = 0
KST3 180616Z 20009KT 07/M03 A2992 RMK A01 T00671025  RH  052%=      5-min Rain = 0
KST3 180617Z 20009KT 07/M03 A2992 RMK A01 T00671025  RH  052%=      5-min Rain = 0
KST3 180618Z 21009KT 07/M03 A2992 RMK A01 T00661026  RH  052%=      5-min Rain = 0
KST3 180619Z 20009KT 07/M03 A2992 RMK A01 T00651026  RH  052%=      5-min Rain = 0
KST3 180620Z 21009KT 06/M03 A2992 RMK A01 T00641026  RH  052%=      5-min Rain = 0
KST3 180621Z 21009KT 06/M03 A2992 RMK A01 T00631026  RH  053%=      5-min Rain = 0
KST3 180622Z 21009KT 06/M03 A2992 RMK A01 T00621026  RH  053%=      5-min Rain = 0
KST3 180623Z 21009KT 06/M03 A2992 RMK A01 T00621026  RH  053%=      5-min Rain = 0
KST3 180624Z 21010KT 06/M03 A2992 RMK A01 T00621025  RH  053%=      5-min Rain = 0
KST3 180625Z 21010KT 06/M03 A2992 RMK A01 T00621025  RH  053%=      5-min Rain = 0
KST3 180626Z 21010KT 06/M03 A2992 RMK A01 T00631025  RH  053%=      5-min Rain = 0
KST3 180627Z 21010KT 06/M03 A2992 RMK A01 T00621025  RH  053%=      5-min Rain = 0
KST3 180628Z 21009KT 06/M03 A2992 RMK A01 T00631025  RH  053%=      5-min Rain = 0
KST3 180629Z 20010KT 06/M03 A2992 RMK A01 T00631025  RH  053%=      5-min Rain = 0
KST3 180630Z 20009KT 06/M03 A2992 RMK A01 T00631025  RH  053%=      5-min Rain = 0
KST3 180631Z 20009KT 06/M03 A2992 RMK A01 T00621026  RH  053%=      5-min Rain = 0
KST3 180632Z 20009KT 06/M03 A2992 RMK A01 T00631025  RH  053%=      5-min Rain = 0
KST3 180633Z 20009KT 06/M03 A2992 RMK A01 T00621025  RH  053%=      5-min Rain = 0
KST3 180634Z 20009KT 06/M03 A2992 RMK A01 T00631025  RH  053%=      5-min Rain = 0
KST3 180635Z 20009KT 07/M03 A2991 RMK A01 T00651025  RH  053%=      5-min Rain = 0
KST3 180636Z 20009KT 07/M02 A2991 RMK A01 T00661024  RH  053%=      5-min Rain = 0
KST3 180637Z 20010KT 07/M03 A2991 RMK A01 T00661025  RH  052%=      5-min Rain = 0
KST3 180638Z 21010KT 07/M03 A2991 RMK A01 T00651026  RH  052%=      5-min Rain = 0
KST3 180639Z 21010KT 07/M03 A2991 RMK A01 T00651026  RH  052%=      5-min Rain = 0
KST3 180640Z 21010KT 06/M03 A2991 RMK A01 T00641026  RH  053%=      5-min Rain = 0
KST3 180641Z 21009KT 06/M03 A2991 RMK A01 T00631026  RH  053%=      5-min Rain = 0
KST3 180642Z 21009KT 06/M03 A2991 RMK A01 T00621026  RH  053%=      5-min Rain = 0
KST3 180643Z 21009KT 06/M03 A2991 RMK A01 T00591027  RH  054%=      5-min Rain = 0
KST3 180644Z 21010KT 06/M03 A2991 RMK A01 T00571027  RH  054%=      5-min Rain = 0
KST3 180645Z 21010KT 06/M03 A2991 RMK A01 T00561027  RH  055%=      5-min Rain = 0
KST3 180646Z 21010KT 06/M03 A299 RMK A01 T00551027  RH  055%=      5-min Rain = 0
KST3 180647Z 21010KT 05/M03 A299 RMK A01 T00541027  RH  056%=      5-min Rain = 0
KST3 180648Z 21010KT 05/M03 A299 RMK A01 T00531027  RH  056%=      5-min Rain = 0
KST3 180649Z 21010KT 05/M03 A299 RMK A01 T00521027  RH  057%=      5-min Rain = 0
KST3 180650Z 21010KT 05/M03 A299 RMK A01 T00521027  RH  057%=      5-min Rain = 0
KST3 180651Z 21010KT 05/M03 A299 RMK A01 T00511027  RH  057%=      5-min Rain = 0
KST3 180652Z 21010KT 05/M03 A299 RMK A01 T00501027  RH  057%=      5-min Rain = 0
KST3 180653Z 21010KT 05/M03 A299 RMK A01 T00501027  RH  058%=      5-min Rain = 0
KST3 180654Z 20010KT 05/M03 A299 RMK A01 T00501027  RH  058%=      5-min Rain = 0
KST3 180655Z 20010KT 05/M03 A2989 RMK A01 T00511026  RH  057%=      5-min Rain = 0
KST3 180656Z 20010KT 05/M03 A2989 RMK A01 T00531026  RH  057%=      5-min Rain = 0
KST3 180657Z 20010KT 05/M03 A2989 RMK A01 T00531026  RH  056%=      5-min Rain = 0
KST3 180658Z 20010KT 06/M03 A2989 RMK A01 T00551026  RH  056%=      5-min Rain = 0
KST3 180659Z 20010KT 06/M03 A2989 RMK A01 T00581025  RH  055%=      5-min Rain = 0
KST3 180700Z 19010KT 06/M03 A2989 RMK A01 T00601025  RH  054%=      5-min Rain = 0
KST3 180701Z 19010KT 06/M03 A2989 RMK A01 T00621025  RH  054%=      5-min Rain = 0
KST3 180702Z 19009KT 06/M03 A2989 RMK A01 T00631026  RH  053%=      5-min Rain = 0
KST3 180703Z 19009KT 06/M03 A2989 RMK A01 T00631026  RH  053%=      5-min Rain = 0
KST3 180704Z 19009KT 06/M03 A2989 RMK A01 T00631026  RH  053%=      5-min Rain = 0
KST3 180705Z 19009KT 06/M03 A2989 RMK A01 T00631026  RH  053%=      5-min Rain = 0
KST3 180706Z 19009KT 06/M03 A2989 RMK A01 T00621027  RH  053%=      5-min Rain = 0
KST3 180707Z 20008KT 06/M03 A2989 RMK A01 T00621027  RH  053%=      5-min Rain = 0
KST3 180708Z 19009KT 06/M03 A2989 RMK A01 T00611027  RH  053%=      5-min Rain = 0
KST3 180709Z 19009KT 06/M03 A2989 RMK A01 T00601027  RH  053%=      5-min Rain = 0
KST3 180710Z 19010KT 06/M03 A2989 RMK A01 T00611026  RH  054%=      5-min Rain = 0
KST3 180711Z 19010KT 06/M03 A2989 RMK A01 T00611026  RH  053%=      5-min Rain = 0
KST3 180712Z 20009KT 06/M03 A2989 RMK A01 T00621026  RH  053%=      5-min Rain = 0
KST3 180713Z 20009KT 06/M03 A2989 RMK A01 T00621027  RH  053%=      5-min Rain = 0
KST3 180714Z 20009KT 06/M03 A2989 RMK A01 T00611027  RH  053%=      5-min Rain = 0
KST3 180715Z 20009KT 06/M03 A2989 RMK A01 T00591028  RH  054%=      5-min Rain = 0
KST3 180716Z 20009KT 06/M03 A2988 RMK A01 T00561028  RH  054%=      5-min Rain = 0
KST3 180717Z 20009KT 06/M03 A2988 RMK A01 T00551028  RH  055%=      5-min Rain = 0
KST3 180718Z 19009KT 06/M03 A2988 RMK A01 T00551027  RH  055%=      5-min Rain = 0
KST3 180719Z 19010KT 05/M03 A2987 RMK A01 T00541027  RH  056%=      5-min Rain = 0
KST3 180720Z 19010KT 06/M03 A2987 RMK A01 T00561026  RH  056%=      5-min Rain = 0
KST3 180721Z 19010KT 06/M03 A2987 RMK A01 T00581025  RH  055%=      5-min Rain = 0
KST3 180722Z 18010KT 06/M03 A2986 RMK A01 T00581025  RH  055%=      5-min Rain = 0
KST3 180723Z 18011KT 06/M03 A2986 RMK A01 T00591025  RH  055%=      5-min Rain = 0
KST3 180724Z 18011KT 06/M03 A2986 RMK A01 T00591025  RH  055%=      5-min Rain = 0
KST3 180725Z 19011KT 06/M03 A2986 RMK A01 T00601025  RH  054%=      5-min Rain = 0
KST3 180726Z 19010KT 06/M03 A2986 RMK A01 T00621025  RH  054%=      5-min Rain = 0
KST3 180727Z 19010KT 06/M03 A2986 RMK A01 T00631025  RH  053%=      5-min Rain = 0
KST3 180728Z 20009KT 06/M03 A2986 RMK A01 T00631026  RH  053%=      5-min Rain = 0
KST3 180729Z 20010KT 06/M03 A2986 RMK A01 T00631026  RH  053%=      5-min Rain = 0
KST3 180730Z 20009KT 06/M03 A2986 RMK A01 T00621026  RH  053%=      5-min Rain = 0
KST3 180731Z 20010KT 06/M03 A2986 RMK A01 T00591027  RH  054%=      5-min Rain = 0
KST3 180732Z 20009KT 06/M03 A2986 RMK A01 T00571027  RH  055%=      5-min Rain = 0
KST3 180733Z 20010KT 06/M03 A2986 RMK A01 T00551027  RH  056%=      5-min Rain = 0
KST3 180734Z 20010KT 05/M03 A2986 RMK A01 T00531027  RH  056%=      5-min Rain = 0
KST3 180735Z 20010KT 05/M03 A2985 RMK A01 T00521027  RH  057%=      5-min Rain = 0
KST3 180736Z 20010KT 05/M03 A2985 RMK A01 T00521026  RH  057%=      5-min Rain = 0
KST3 180737Z 20011KT 05/M03 A2985 RMK A01 T00531026  RH  057%=      5-min Rain = 0
KST3 180738Z 20011KT 05/M03 A2985 RMK A01 T00541025  RH  057%=      5-min Rain = 0
KST3 180739Z 20011KT 06/M03 A2985 RMK A01 T00561025  RH  056%=      5-min Rain = 0
KST3 180740Z 19012KT 06/M02 A2984 RMK A01 T00581024  RH  056%=      5-min Rain = 0
KST3 180741Z 19013KT 06/M03 A2984 RMK A01 T00591025  RH  055%=      5-min Rain = 0
KST3 180742Z 20014KT 06/M03 A2984 RMK A01 T00601025  RH  055%=      5-min Rain = 0
KST3 180743Z 19013KT 06/M03 A2984 RMK A01 T00601025  RH  055%=      5-min Rain = 0
KST3 180744Z 20012KT 06/M03 A2984 RMK A01 T00601025  RH  055%=      5-min Rain = 0
KST3 180745Z 20013KT 06/M02 A2984 RMK A01 T00601024  RH  054%=      5-min Rain = 0
KST3 180746Z 21013KT 06/M02 A2984 RMK A01 T00601024  RH  055%=      5-min Rain = 0
KST3 180747Z 21013KT 06/M02 A2984 RMK A01 T00601024  RH  055%=      5-min Rain = 0
KST3 180748Z 21013KT 06/M02 A2984 RMK A01 T00601024  RH  055%=      5-min Rain = 0
KST3 180749Z 21012KT 06/M02 A2984 RMK A01 T00591024  RH  055%=      5-min Rain = 0
KST3 180750Z 22012KT 06/M02 A2984 RMK A01 T00601024  RH  055%=      5-min Rain = 0
KST3 180751Z 22012KT 06/M02 A2984 RMK A01 T00601024  RH  055%=      5-min Rain = 0
KST3 180752Z 22011KT 06/M02 A2985 RMK A01 T00601024  RH  055%=      5-min Rain = 0
KST3 180753Z 23011KT 06/M02 A2985 RMK A01 T00601024  RH  055%=      5-min Rain = 0
KST3 180754Z 23012KT 06/M02 A2985 RMK A01 T00581024  RH  055%=      5-min Rain = 0
KST3 180755Z 22012KT 06/M02 A2985 RMK A01 T00581024  RH  056%=      5-min Rain = 0
KST3 180756Z 22012KT 06/M02 A2985 RMK A01 T00571024  RH  056%=      5-min Rain = 0
KST3 180757Z 22013KT 06/M02 A2985 RMK A01 T00571024  RH  056%=      5-min Rain = 0
KST3 180758Z 22013KT 06/M02 A2984 RMK A01 T00571024  RH  056%=      5-min Rain = 0
KST3 180759Z 22013KT 06/M02 A2984 RMK A01 T00571024  RH  056%=      5-min Rain = 0
KST3 180800Z 21013KT 06/M02 A2984 RMK A01 T00581024  RH  056%=      5-min Rain = 0
KST3 180801Z 21013KT 06/M02 A2984 RMK A01 T00581024  RH  056%=      5-min Rain = 0
KST3 180802Z 22014KT 06/M02 A2984 RMK A01 T00581024  RH  056%=      5-min Rain = 0
KST3 180803Z 22013KT 06/M02 A2984 RMK A01 T00591024  RH  055%=      5-min Rain = 0
KST3 180804Z 22013KT 06/M02 A2984 RMK A01 T00591024  RH  055%=      5-min Rain = 0
KST3 180805Z 22013KT 06/M02 A2984 RMK A01 T00591024  RH  056%=      5-min Rain = 0
KST3 180806Z 22014KT 06/M02 A2984 RMK A01 T00591024  RH  056%=      5-min Rain = 0
KST3 180807Z 21014KT 06/M02 A2984 RMK A01 T00591024  RH  056%=      5-min Rain = 0
KST3 180808Z 21014KT 06/M02 A2984 RMK A01 T00591023  RH  056%=      5-min Rain = 0
KST3 180809Z 21014KT 06/M02 A2983 RMK A01 T00581024  RH  056%=      5-min Rain = 0
KST3 180810Z 21014KT 06/M02 A2983 RMK A01 T00581024  RH  056%=      5-min Rain = 0
KST3 180811Z 21014KT 06/M02 A2983 RMK A01 T00581023  RH  056%=      5-min Rain = 0
KST3 180812Z 21014KT 06/M02 A2983 RMK A01 T00571024  RH  056%=      5-min Rain = 0
KST3 180813Z 21014KT 06/M02 A2983 RMK A01 T00571023  RH  056%=      5-min Rain = 0
KST3 180814Z 21014KT 06/M02 A2983 RMK A01 T00561023  RH  057%=      5-min Rain = 0
KST3 180815Z 21014KT 06/M02 A2983 RMK A01 T00561023  RH  057%=      5-min Rain = 0
KST3 180816Z 21015KT 06/M02 A2983 RMK A01 T00561023  RH  057%=      5-min Rain = 0
KST3 180817Z 21014KT 06/M02 A2983 RMK A01 T00561023  RH  057%=      5-min Rain = 0
KST3 180818Z 21014KT 06/M02 A2983 RMK A01 T00561023  RH  057%=      5-min Rain = 0
KST3 180819Z 21014KT 06/M02 A2983 RMK A01 T00571022  RH  057%=      5-min Rain = 0
KST3 180820Z 21013KT 06/M02 A2983 RMK A01 T00571022  RH  057%=      5-min Rain = 0
KST3 180821Z 21013KT 06/M02 A2983 RMK A01 T00571022  RH  056%=      5-min Rain = 0
KST3 180822Z 21013KT 06/M02 A2983 RMK A01 T00571022  RH  057%=      5-min Rain = 0
KST3 180823Z 21013KT 06/M02 A2983 RMK A01 T00571022  RH  057%=      5-min Rain = 0
KST3 180824Z 21013KT 06/M02 A2982 RMK A01 T00571022  RH  057%=      5-min Rain = 0
KST3 180825Z 21012KT 06/M02 A2982 RMK A01 T00551023  RH  057%=      5-min Rain = 0
KST3 180826Z 21012KT 06/M02 A2982 RMK A01 T00551023  RH  057%=      5-min Rain = 0
KST3 180827Z 21012KT 05/M02 A2982 RMK A01 T00541023  RH  058%=      5-min Rain = 0
KST3 180828Z 21012KT 05/M02 A2982 RMK A01 T00531023  RH  058%=      5-min Rain = 0
KST3 180829Z 21012KT 05/M02 A2982 RMK A01 T00521023  RH  058%=      5-min Rain = 0
KST3 180830Z 21012KT 05/M02 A2982 RMK A01 T00511023  RH  059%=      5-min Rain = 0
KST3 180831Z 21012KT 05/M02 A2982 RMK A01 T00501023  RH  059%=      5-min Rain = 0
KST3 180832Z 21013KT 05/M02 A2982 RMK A01 T00491023  RH  060%=      5-min Rain = 0
KST3 180833Z 20013KT 05/M02 A2982 RMK A01 T00481023  RH  060%=      5-min Rain = 0
KST3 180834Z 21013KT 05/M02 A2981 RMK A01 T00471023  RH  061%=      5-min Rain = 0
KST3 180835Z 20013KT 05/M02 A2981 RMK A01 T00461023  RH  061%=      5-min Rain = 0
KST3 180836Z 20012KT 05/M02 A2981 RMK A01 T00461023  RH  061%=      5-min Rain = 0
KST3 180837Z 20012KT 05/M02 A2981 RMK A01 T00451023  RH  061%=      5-min Rain = 0
KST3 180838Z 20013KT 05/M02 A2981 RMK A01 T00451022  RH  062%=      5-min Rain = 0
KST3 180839Z 20012KT 05/M02 A2981 RMK A01 T00451022  RH  062%=      5-min Rain = 0
KST3 180840Z 20013KT 05/M02 A2981 RMK A01 T00451022  RH  062%=      5-min Rain = 0
KST3 180841Z 20013KT 05/M02 A2981 RMK A01 T00461022  RH  062%=      5-min Rain = 0
KST3 180842Z 21013KT 05/M02 A2981 RMK A01 T00461022  RH  061%=      5-min Rain = 0
KST3 180843Z 21012KT 05/M02 A2981 RMK A01 T00471021  RH  061%=      5-min Rain = 0
KST3 180844Z 21011KT 05/M02 A2981 RMK A01 T00471021  RH  061%=      5-min Rain = 0
KST3 180845Z 21011KT 05/M02 A2981 RMK A01 T00471021  RH  061%=      5-min Rain = 0
KST3 180846Z 21010KT 05/M02 A2981 RMK A01 T00471021  RH  061%=      5-min Rain = 0
KST3 180847Z 21010KT 05/M02 A2981 RMK A01 T00471021  RH  061%=      5-min Rain = 0
KST3 180848Z 21010KT 05/M02 A2981 RMK A01 T00471021  RH  061%=      5-min Rain = 0
KST3 180849Z 21011KT 05/M02 A2981 RMK A01 T00481020  RH  061%=      5-min Rain = 0
KST3 180850Z 21010KT 05/M02 A2981 RMK A01 T00501020  RH  061%=      5-min Rain = 0
KST3 180851Z 21010KT 05/M02 A2981 RMK A01 T00511020  RH  060%=      5-min Rain = 0
KST3 180852Z 21010KT 05/M02 A2981 RMK A01 T00521020  RH  060%=      5-min Rain = 0
KST3 180853Z 21008KT 05/M02 A2981 RMK A01 T00521019  RH  060%=      5-min Rain = 0
KST3 180854Z 21010KT 05/M02 A2981 RMK A01 T00521020  RH  060%=      5-min Rain = 0
KST3 180855Z 21010KT 05/M02 A2981 RMK A01 T00531019  RH  060%=      5-min Rain = 0
KST3 180856Z 21010KT 06/M02 A2981 RMK A01 T00551019  RH  059%=      5-min Rain = 0
KST3 180857Z 21011KT 06/M02 A2981 RMK A01 T00551020  RH  059%=      5-min Rain = 0
KST3 180858Z 21010KT 06/M02 A298 RMK A01 T00551020  RH  059%=      5-min Rain = 0
KST3 180859Z 21011KT 06/M02 A298 RMK A01 T00551020  RH  058%=      5-min Rain = 0
KST3 180900Z 21012KT 06/M02 A298 RMK A01 T00561020  RH  058%=      5-min Rain = 0
KST3 180901Z 21013KT 06/M02 A298 RMK A01 T00581020  RH  058%=      5-min Rain = 0
KST3 180902Z 21013KT 06/M02 A298 RMK A01 T00601020  RH  057%=      5-min Rain = 0
KST3 180903Z 21013KT 06/M02 A298 RMK A01 T00611020  RH  056%=      5-min Rain = 0
KST3 180904Z 21015KT 06/M02 A298 RMK A01 T00611020  RH  056%=      5-min Rain = 0
KST3 180905Z 21015KT 06/M02 A298 RMK A01 T00611021  RH  056%=      5-min Rain = 0
KST3 180906Z 21014G19KT 06/M02 A2979 RMK A01 T00621020  RH  056%=      5-min Rain = 0
KST3 180907Z 21014KT 06/M02 A298 RMK A01 T00621020  RH  055%=      5-min Rain = 0
KST3 180908Z 21014KT 06/M02 A298 RMK A01 T00631020  RH  055%=      5-min Rain = 0
KST3 180909Z 21014KT 06/M02 A2979 RMK A01 T00631021  RH  055%=      5-min Rain = 0
KST3 180910Z 21014KT 06/M02 A2979 RMK A01 T00641021  RH  055%=      5-min Rain = 0
KST3 180911Z 21014KT 07/M02 A2979 RMK A01 T00651021  RH  054%=      5-min Rain = 0
KST3 180912Z 21015KT 07/M02 A2979 RMK A01 T00651021  RH  054%=      5-min Rain = 0
KST3 180913Z 21014KT 07/M02 A2979 RMK A01 T00651021  RH  054%=      5-min Rain = 0
KST3 180914Z 21014KT 07/M02 A2979 RMK A01 T00661021  RH  054%=      5-min Rain = 0
KST3 180915Z 21015KT 07/M02 A2979 RMK A01 T00661021  RH  054%=      5-min Rain = 0
KST3 180916Z 21014KT 07/M02 A298 RMK A01 T00661021  RH  053%=      5-min Rain = 0
KST3 180917Z 21016KT 07/M02 A2979 RMK A01 T00661022  RH  053%=      5-min Rain = 0
KST3 180918Z 21015KT 07/M02 A2979 RMK A01 T00671022  RH  053%=      5-min Rain = 0
KST3 180919Z 21015KT 07/M02 A2979 RMK A01 T00681022  RH  053%=      5-min Rain = 0
KST3 180920Z 21016KT 07/M02 A2979 RMK A01 T00681022  RH  053%=      5-min Rain = 0
KST3 180921Z 21016KT 07/M02 A2979 RMK A01 T00691022  RH  052%=      5-min Rain = 0
KST3 180922Z 21016KT 07/M02 A2979 RMK A01 T00691022  RH  052%=      5-min Rain = 0
KST3 180923Z 21016KT 07/M02 A2979 RMK A01 T00701023  RH  052%=      5-min Rain = 0
KST3 180924Z 21015KT 07/M02 A2979 RMK A01 T00701023  RH  052%=      5-min Rain = 0
KST3 180925Z 21014KT 07/M02 A2979 RMK A01 T00701023  RH  052%=      5-min Rain = 0
KST3 180926Z 21015KT 07/M02 A2979 RMK A01 T00701023  RH  052%=      5-min Rain = 0
KST3 180927Z 21016KT 07/M02 A2979 RMK A01 T00701023  RH  052%=      5-min Rain = 0
KST3 180928Z 21015KT 07/M02 A2979 RMK A01 T00701024  RH  051%=      5-min Rain = 0
KST3 180929Z 21015G20KT 07/M02 A2979 RMK A01 T00701024  RH  051%=      5-min Rain = 0
KST3 180930Z 21014KT 07/M02 A2979 RMK A01 T00701024  RH  051%=      5-min Rain = 0
KST3 180931Z 22013KT 07/M02 A2979 RMK A01 T00701024  RH  051%=      5-min Rain = 0
KST3 180932Z 21014KT 07/M02 A2979 RMK A01 T00691024  RH  052%=      5-min Rain = 0
KST3 180933Z 22015KT 07/M02 A2979 RMK A01 T00691024  RH  051%=      5-min Rain = 0
KST3 180934Z 22014KT 07/M02 A2979 RMK A01 T00701024  RH  051%=      5-min Rain = 0
KST3 180935Z 22013KT 07/M02 A2979 RMK A01 T00701024  RH  051%=      5-min Rain = 0
KST3 180936Z 22014KT 07/M02 A2979 RMK A01 T00701024  RH  051%=      5-min Rain = 0
KST3 180937Z 22013KT 07/M02 A2979 RMK A01 T00701024  RH  051%=      5-min Rain = 0
KST3 180938Z 22014KT 07/M02 A2979 RMK A01 T00691024  RH  051%=      5-min Rain = 0
KST3 180939Z 22015KT 07/M02 A2979 RMK A01 T00691024  RH  051%=      5-min Rain = 0
KST3 180940Z 22015KT 07/M02 A2979 RMK A01 T00691024  RH  052%=      5-min Rain = 0
KST3 180941Z 22015KT 07/M02 A2979 RMK A01 T00691024  RH  051%=      5-min Rain = 0
KST3 180942Z 22015KT 07/M03 A2979 RMK A01 T00691025  RH  051%=      5-min Rain = 0
KST3 180943Z 22013KT 07/M03 A2979 RMK A01 T00691025  RH  051%=      5-min Rain = 0
KST3 180944Z 22014KT 07/M03 A2979 RMK A01 T00691025  RH  051%=      5-min Rain = 0
KST3 180945Z 22014KT 07/M03 A2979 RMK A01 T00691025  RH  051%=      5-min Rain = 0
KST3 180946Z 22014KT 07/M03 A2979 RMK A01 T00701025  RH  051%=      5-min Rain = 0
KST3 180947Z 23014KT 07/M03 A2979 RMK A01 T00701025  RH  051%=      5-min Rain = 0
KST3 180948Z 22013KT 07/M03 A2979 RMK A01 T00701025  RH  051%=      5-min Rain = 0
KST3 180949Z 22013KT 07/M03 A2979 RMK A01 T00701025  RH  051%=      5-min Rain = 0
KST3 180950Z 22013KT 07/M03 A2978 RMK A01 T00701025  RH  051%=      5-min Rain = 0
KST3 180951Z 22013KT 07/M02 A2978 RMK A01 T00701024  RH  051%=      5-min Rain = 0
KST3 180952Z 22014KT 07/M02 A2978 RMK A01 T00701024  RH  051%=      5-min Rain = 0
KST3 180953Z 22015KT 07/M03 A2978 RMK A01 T00701025  RH  051%=      5-min Rain = 0
KST3 180954Z 22014KT 07/M02 A2978 RMK A01 T00711024  RH  051%=      5-min Rain = 0
KST3 180955Z 22015KT 07/M02 A2978 RMK A01 T00711024  RH  051%=      5-min Rain = 0
KST3 180956Z 22015KT 07/M02 A2978 RMK A01 T00711024  RH  051%=      5-min Rain = 0
KST3 180957Z 22015KT 07/M02 A2978 RMK A01 T00711024  RH  051%=      5-min Rain = 0
KST3 180958Z 22016KT 07/M02 A2978 RMK A01 T00711024  RH  051%=      5-min Rain = 0
KST3 180959Z 22016KT 07/M02 A2978 RMK A01 T00711024  RH  051%=      5-min Rain = 0
KST3 181000Z 22016KT 07/M02 A2978 RMK A01 T00711024  RH  051%=      5-min Rain = 0
KST3 181001Z 21015KT 07/M03 A2978 RMK A01 T00711025  RH  051%=      5-min Rain = 0
KST3 181002Z 22016KT 07/M03 A2977 RMK A01 T00701025  RH  051%=      5-min Rain = 0
KST3 181003Z 22015KT 07/M03 A2977 RMK A01 T00701025  RH  051%=      5-min Rain = 0
KST3 181004Z 21016KT 07/M03 A2977 RMK A01 T00701026  RH  050%=      5-min Rain = 0
KST3 181005Z 22015KT 07/M03 A2977 RMK A01 T00711026  RH  050%=      5-min Rain = 0
KST3 181006Z 21015KT 07/M03 A2977 RMK A01 T00711026  RH  050%=      5-min Rain = 0
KST3 181007Z 22014KT 07/M03 A2977 RMK A01 T00711026  RH  050%=      5-min Rain = 0
KST3 181008Z 21015KT 07/M03 A2977 RMK A01 T00711027  RH  050%=      5-min Rain = 0
KST3 181009Z 22015KT 07/M03 A2977 RMK A01 T00721027  RH  050%=      5-min Rain = 0
KST3 181010Z 21015KT 07/M03 A2977 RMK A01 T00721027  RH  049%=      5-min Rain = 0
KST3 181011Z 22016KT 07/M03 A2977 RMK A01 T00731028  RH  049%=      5-min Rain = 0
KST3 181012Z 22016KT 07/M03 A2977 RMK A01 T00741028  RH  048%=      5-min Rain = 0
KST3 181013Z 22015KT 08/M03 A2977 RMK A01 T00751028  RH  048%=      5-min Rain = 0
KST3 181014Z 22015KT 08/M03 A2977 RMK A01 T00751028  RH  048%=      5-min Rain = 0
KST3 181015Z 22016KT 08/M03 A2977 RMK A01 T00751029  RH  048%=      5-min Rain = 0
KST3 181016Z 22016KT 08/M03 A2977 RMK A01 T00751029  RH  048%=      5-min Rain = 0
KST3 181017Z 22014KT 08/M03 A2977 RMK A01 T00751029  RH  048%=      5-min Rain = 0
KST3 181018Z 22014KT 08/M03 A2977 RMK A01 T00761029  RH  047%=      5-min Rain = 0
KST3 181019Z 22016KT 08/M03 A2977 RMK A01 T00761029  RH  047%=      5-min Rain = 0
KST3 181020Z 22014KT 08/M03 A2977 RMK A01 T00761029  RH  047%=      5-min Rain = 0
KST3 181021Z 22013KT 08/M03 A2977 RMK A01 T00751029  RH  047%=      5-min Rain = 0
KST3 181022Z 22015KT 08/M03 A2977 RMK A01 T00751029  RH  048%=      5-min Rain = 0
KST3 181023Z 22015KT 07/M03 A2976 RMK A01 T00741029  RH  048%=      5-min Rain = 0
KST3 181024Z 22015KT 07/M03 A2976 RMK A01 T00741029  RH  048%=      5-min Rain = 0
KST3 181025Z 22015KT 07/M03 A2976 RMK A01 T00741030  RH  048%=      5-min Rain = 0
KST3 181026Z 22015KT 07/M03 A2976 RMK A01 T00721030  RH  048%=      5-min Rain = 0
KST3 181027Z 22015KT 07/M03 A2976 RMK A01 T00721030  RH  048%=      5-min Rain = 0
KST3 181028Z 22015KT 07/M03 A2976 RMK A01 T00721030  RH  048%=      5-min Rain = 0
KST3 181029Z 22016KT 07/M03 A2976 RMK A01 T00721030  RH  048%=      5-min Rain = 0
KST3 181030Z 22014KT 07/M03 A2976 RMK A01 T00721030  RH  048%=      5-min Rain = 0
KST3 181031Z 22015KT 07/M03 A2976 RMK A01 T00711030  RH  048%=      5-min Rain = 0
KST3 181032Z 22016KT 07/M03 A2976 RMK A01 T00711030  RH  048%=      5-min Rain = 0
KST3 181033Z 22015KT 07/M03 A2976 RMK A01 T00721030  RH  048%=      5-min Rain = 0
KST3 181034Z 22015KT 07/M03 A2976 RMK A01 T00711030  RH  048%=      5-min Rain = 0
KST3 181035Z 21015KT 07/M03 A2975 RMK A01 T00701030  RH  049%=      5-min Rain = 0
KST3 181036Z 21014KT 07/M03 A2975 RMK A01 T00701030  RH  049%=      5-min Rain = 0
KST3 181037Z 21015KT 07/M03 A2975 RMK A01 T00701030  RH  049%=      5-min Rain = 0
KST3 181038Z 21015KT 07/M03 A2975 RMK A01 T00691031  RH  049%=      5-min Rain = 0
KST3 181039Z 21014KT 07/M03 A2975 RMK A01 T00691030  RH  049%=      5-min Rain = 0
KST3 181040Z 21014KT 07/M03 A2975 RMK A01 T00691030  RH  049%=      5-min Rain = 0
KST3 181041Z 21014KT 07/M03 A2975 RMK A01 T00681030  RH  049%=      5-min Rain = 0
KST3 181042Z 21015KT 07/M03 A2975 RMK A01 T00681030  RH  050%=      5-min Rain = 0
KST3 181043Z 21014KT 07/M03 A2975 RMK A01 T00681030  RH  050%=      5-min Rain = 0
KST3 181044Z 21015KT 07/M03 A2975 RMK A01 T00671030  RH  050%=      5-min Rain = 0
KST3 181045Z 22015KT 07/M03 A2975 RMK A01 T00681031  RH  050%=      5-min Rain = 0
KST3 181046Z 22014KT 07/M03 A2975 RMK A01 T00681030  RH  049%=      5-min Rain = 0
KST3 181047Z 22015KT 07/M03 A2975 RMK A01 T00691030  RH  049%=      5-min Rain = 0
KST3 181048Z 21015KT 07/M03 A2975 RMK A01 T00681030  RH  049%=      5-min Rain = 0
KST3 181049Z 22015KT 07/M03 A2975 RMK A01 T00681031  RH  049%=      5-min Rain = 0
KST3 181050Z 22015KT 07/M03 A2975 RMK A01 T00681030  RH  049%=      5-min Rain = 0
KST3 181051Z 21015KT 07/M03 A2975 RMK A01 T00681030  RH  050%=      5-min Rain = 0
KST3 181052Z 22013KT 07/M03 A2974 RMK A01 T00681030  RH  050%=      5-min Rain = 0
KST3 181053Z 22015KT 07/M03 A2974 RMK A01 T00681030  RH  050%=      5-min Rain = 0
KST3 181054Z 22014KT 07/M03 A2975 RMK A01 T00681030  RH  050%=      5-min Rain = 0
KST3 181055Z 22014KT 07/M03 A2975 RMK A01 T00681030  RH  050%=      5-min Rain = 0
KST3 181056Z 22014KT 07/M03 A2974 RMK A01 T00681030  RH  050%=      5-min Rain = 0
KST3 181057Z 22014KT 07/M03 A2974 RMK A01 T00681030  RH  050%=      5-min Rain = 0
KST3 181058Z 22014KT 07/M03 A2974 RMK A01 T00681030  RH  050%=      5-min Rain = 0
KST3 181059Z 22015KT 07/M03 A2974 RMK A01 T00671030  RH  050%=      5-min Rain = 0
KST3 181100Z 22015KT 07/M03 A2974 RMK A01 T00681030  RH  050%=      5-min Rain = 0
KST3 181101Z 22016KT 07/M03 A2974 RMK A01 T00691030  RH  049%=      5-min Rain = 0
KST3 181102Z 22015KT 07/M03 A2974 RMK A01 T00691030  RH  049%=      5-min Rain = 0
KST3 181103Z 22015KT 07/M03 A2974 RMK A01 T00691030  RH  049%=      5-min Rain = 0
KST3 181104Z 22014KT 07/M03 A2974 RMK A01 T00701030  RH  049%=      5-min Rain = 0
KST3 181105Z 22015KT 07/M03 A2974 RMK A01 T00691030  RH  049%=      5-min Rain = 0
KST3 181106Z 22014KT 07/M03 A2974 RMK A01 T00681030  RH  049%=      5-min Rain = 0
KST3 181107Z 21014KT 07/M03 A2974 RMK A01 T00681031  RH  050%=      5-min Rain = 0
KST3 181108Z 22013KT 07/M03 A2974 RMK A01 T00671030  RH  050%=      5-min Rain = 0
KST3 181109Z 21014KT 07/M03 A2974 RMK A01 T00671030  RH  050%=      5-min Rain = 0
KST3 181110Z 22013KT 07/M03 A2974 RMK A01 T00661030  RH  050%=      5-min Rain = 0
KST3 181111Z 22013KT 07/M03 A2974 RMK A01 T00661030  RH  050%=      5-min Rain = 0
KST3 181112Z 22013KT 07/M03 A2974 RMK A01 T00651030  RH  051%=      5-min Rain = 0
KST3 181113Z 22014KT 06/M03 A2974 RMK A01 T00641030  RH  051%=      5-min Rain = 0
KST3 181114Z 22014KT 06/M03 A2974 RMK A01 T00641030  RH  051%=      5-min Rain = 0
KST3 181115Z 22014KT 06/M03 A2974 RMK A01 T00641030  RH  051%=      5-min Rain = 0
KST3 181116Z 22014KT 06/M03 A2974 RMK A01 T00641030  RH  051%=      5-min Rain = 0
KST3 181117Z 22014KT 07/M03 A2974 RMK A01 T00651030  RH  051%=      5-min Rain = 0
KST3 181118Z 22013KT 07/M03 A2973 RMK A01 T00651030  RH  051%=      5-min Rain = 0
KST3 181119Z 22014KT 06/M03 A2973 RMK A01 T00641030  RH  051%=      5-min Rain = 0
KST3 181120Z 22014KT 06/M03 A2973 RMK A01 T00641029  RH  051%=      5-min Rain = 0
KST3 181121Z 22014KT 06/M03 A2973 RMK A01 T00641029  RH  051%=      5-min Rain = 0
KST3 181122Z 22013KT 06/M03 A2973 RMK A01 T00641029  RH  051%=      5-min Rain = 0
KST3 181123Z 22014KT 06/M03 A2973 RMK A01 T00641029  RH  051%=      5-min Rain = 0
KST3 181124Z 22012KT 06/M03 A2973 RMK A01 T00641029  RH  051%=      5-min Rain = 0
KST3 181125Z 22012KT 06/M03 A2973 RMK A01 T00641029  RH  051%=      5-min Rain = 0
KST3 181126Z 22012KT 06/M03 A2973 RMK A01 T00641029  RH  051%=      5-min Rain = 0
KST3 181127Z 23012KT 06/M03 A2973 RMK A01 T00641029  RH  051%=      5-min Rain = 0
KST3 181128Z 23012KT 06/M03 A2973 RMK A01 T00641029  RH  051%=      5-min Rain = 0
KST3 181129Z 23012KT 06/M03 A2973 RMK A01 T00641029  RH  051%=      5-min Rain = 0
KST3 181130Z 23012KT 06/M03 A2973 RMK A01 T00641029  RH  051%=      5-min Rain = 0
KST3 181131Z 23012KT 06/M03 A2973 RMK A01 T00631029  RH  052%=      5-min Rain = 0
KST3 181132Z 23012KT 06/M03 A2973 RMK A01 T00631029  RH  052%=      5-min Rain = 0
KST3 181133Z 22012KT 06/M03 A2973 RMK A01 T00621029  RH  052%=      5-min Rain = 0
KST3 181134Z 22012KT 06/M03 A2973 RMK A01 T00621029  RH  052%=      5-min Rain = 0
KST3 181135Z 22011KT 06/M03 A2973 RMK A01 T00621028  RH  052%=      5-min Rain = 0
KST3 181136Z 23011KT 06/M03 A2973 RMK A01 T00611029  RH  053%=      5-min Rain = 0
KST3 181137Z 23011KT 06/M03 A2973 RMK A01 T00611028  RH  053%=      5-min Rain = 0
KST3 181138Z 23012KT 06/M03 A2972 RMK A01 T00611028  RH  053%=      5-min Rain = 0
KST3 181139Z 22012KT 06/M03 A2972 RMK A01 T00611028  RH  053%=      5-min Rain = 0
KST3 181140Z 22012KT 06/M03 A2972 RMK A01 T00621028  RH  052%=      5-min Rain = 0
KST3 181141Z 22011KT 06/M03 A2972 RMK A01 T00621028  RH  052%=      5-min Rain = 0
KST3 181142Z 23012KT 06/M03 A2972 RMK A01 T00631028  RH  052%=      5-min Rain = 0
KST3 181143Z 22012KT 06/M03 A2972 RMK A01 T00631028  RH  052%=      5-min Rain = 0
KST3 181144Z 22012KT 06/M03 A2972 RMK A01 T00631029  RH  052%=      5-min Rain = 0
KST3 181145Z 22013KT 06/M03 A2972 RMK A01 T00631029  RH  052%=      5-min Rain = 0
KST3 181146Z 22012KT 06/M03 A2971 RMK A01 T00631029  RH  052%=      5-min Rain = 0
KST3 181147Z 22012KT 06/M03 A2971 RMK A01 T00641029  RH  051%=      5-min Rain = 0
KST3 181148Z 23012KT 06/M03 A2971 RMK A01 T00641029  RH  051%=      5-min Rain = 0
KST3 181149Z 23011KT 06/M03 A2972 RMK A01 T00641029  RH  051%=      5-min Rain = 0
KST3 181150Z 23011KT 06/M03 A2972 RMK A01 T00631029  RH  052%=      5-min Rain = 0
KST3 181151Z 23012KT 06/M03 A2972 RMK A01 T00621030  RH  052%=      5-min Rain = 0
KST3 181152Z 23012KT 06/M03 A2972 RMK A01 T00611029  RH  052%=      5-min Rain = 0
KST3 181153Z 23012KT 06/M03 A2972 RMK A01 T00611030  RH  052%=      5-min Rain = 0
KST3 181154Z 23012KT 06/M03 A2972 RMK A01 T00601030  RH  052%=      5-min Rain = 0
KST3 181155Z 23011KT 06/M03 A2972 RMK A01 T00591030  RH  053%=      5-min Rain = 0
KST3 181156Z 24011KT 06/M03 A2972 RMK A01 T00581030  RH  053%=      5-min Rain = 0
KST3 181157Z 24011KT 06/M03 A2971 RMK A01 T00571030  RH  053%=      5-min Rain = 0
KST3 181158Z 24012KT 06/M03 A2971 RMK A01 T00571030  RH  054%=      5-min Rain = 0
KST3 181159Z 24011KT 06/M03 A2971 RMK A01 T00571030  RH  054%=      5-min Rain = 0
KST3 181200Z 24012KT 06/M03 A2971 RMK A01 T00581029  RH  053%=      5-min Rain = 0
KST3 181201Z 24012KT 06/M03 A2971 RMK A01 T00581030  RH  053%=      5-min Rain = 0
KST3 181202Z 24011KT 06/M03 A2971 RMK A01 T00581029  RH  053%=      5-min Rain = 0
KST3 181203Z 25012KT 06/M03 A2971 RMK A01 T00581029  RH  053%=      5-min Rain = 0
KST3 181204Z 25011KT 06/M03 A2971 RMK A01 T00581029  RH  053%=      5-min Rain = 0
KST3 181205Z 25011KT 06/M03 A2971 RMK A01 T00581029  RH  053%=      5-min Rain = 0
KST3 181206Z 25011KT 06/M03 A2971 RMK A01 T00591029  RH  053%=      5-min Rain = 0
KST3 181207Z 25012KT 06/M03 A2971 RMK A01 T00591029  RH  053%=      5-min Rain = 0
KST3 181208Z 24012KT 06/M03 A2971 RMK A01 T00601029  RH  053%=      5-min Rain = 0
KST3 181209Z 24012KT 06/M03 A2971 RMK A01 T00601028  RH  053%=      5-min Rain = 0
KST3 181210Z 24012KT 06/M03 A2971 RMK A01 T00601028  RH  053%=      5-min Rain = 0
KST3 181211Z 24012KT 06/M03 A2971 RMK A01 T00611028  RH  053%=      5-min Rain = 0
KST3 181212Z 24011KT 06/M03 A2971 RMK A01 T00611028  RH  053%=      5-min Rain = 0
KST3 181213Z 24012KT 06/M03 A2971 RMK A01 T00621028  RH  052%=      5-min Rain = 0
KST3 181214Z 24012KT 06/M03 A2971 RMK A01 T00631028  RH  052%=      5-min Rain = 0
KST3 181215Z 23012KT 06/M03 A2971 RMK A01 T00641028  RH  052%=      5-min Rain = 0
KST3 181216Z 23012KT 06/M03 A2971 RMK A01 T00641028  RH  052%=      5-min Rain = 0
KST3 181217Z 24012KT 06/M03 A2971 RMK A01 T00641028  RH  052%=      5-min Rain = 0
KST3 181218Z 23012KT 06/M03 A2971 RMK A01 T00631028  RH  052%=      5-min Rain = 0
KST3 181219Z 23012KT 06/M03 A297 RMK A01 T00631028  RH  052%=      5-min Rain = 0
KST3 181220Z 23012KT 06/M03 A297 RMK A01 T00631028  RH  052%=      5-min Rain = 0
KST3 181221Z 23012KT 06/M03 A2971 RMK A01 T00631028  RH  052%=      5-min Rain = 0
KST3 181222Z 23012KT 06/M03 A2971 RMK A01 T00631028  RH  052%=      5-min Rain = 0
KST3 181223Z 23012KT 06/M03 A2971 RMK A01 T00631028  RH  052%=      5-min Rain = 0
KST3 181224Z 23012KT 06/M03 A2971 RMK A01 T00631028  RH  052%=      5-min Rain = 0
KST3 181225Z 22011KT 06/M03 A297 RMK A01 T00621028  RH  052%=      5-min Rain = 0
KST3 181226Z 22012KT 06/M03 A297 RMK A01 T00611028  RH  053%=      5-min Rain = 0
KST3 181227Z 22012KT 06/M03 A297 RMK A01 T00611028  RH  053%=      5-min Rain = 0
KST3 181228Z 22012KT 06/M03 A297 RMK A01 T00611028  RH  053%=      5-min Rain = 0
KST3 181229Z 22011KT 06/M03 A297 RMK A01 T00601028  RH  053%=      5-min Rain = 0
KST3 181230Z 23011KT 06/M03 A297 RMK A01 T00601028  RH  053%=      5-min Rain = 0
KST3 181231Z 23011KT 06/M03 A297 RMK A01 T00611028  RH  053%=      5-min Rain = 0
KST3 181232Z 24010KT 06/M03 A297 RMK A01 T00601028  RH  053%=      5-min Rain = 0
KST3 181233Z 23010KT 06/M03 A297 RMK A01 T00591029  RH  053%=      5-min Rain = 0
KST3 181234Z 22010KT 06/M03 A297 RMK A01 T00591028  RH  053%=      5-min Rain = 0
KST3 181235Z 22009KT 06/M03 A297 RMK A01 T00591028  RH  054%=      5-min Rain = 0
KST3 181236Z 22010KT 06/M03 A297 RMK A01 T00581028  RH  054%=      5-min Rain = 0
KST3 181237Z 22010KT 06/M03 A297 RMK A01 T00581028  RH  054%=      5-min Rain = 0
KST3 181238Z 22010KT 06/M03 A297 RMK A01 T00571028  RH  054%=      5-min Rain = 0
KST3 181239Z 23010KT 06/M03 A297 RMK A01 T00561028  RH  055%=      5-min Rain = 0
KST3 181240Z 23011KT 06/M03 A297 RMK A01 T00561028  RH  055%=      5-min Rain = 0
KST3 181241Z 23011KT 06/M03 A297 RMK A01 T00561028  RH  055%=      5-min Rain = 0
KST3 181242Z 23011KT 06/M03 A297 RMK A01 T00561028  RH  055%=      5-min Rain = 0
KST3 181243Z 22011KT 06/M03 A297 RMK A01 T00561027  RH  055%=      5-min Rain = 0
KST3 181244Z 22012KT 06/M03 A297 RMK A01 T00551027  RH  055%=      5-min Rain = 0
KST3 181245Z 22012KT 06/M03 A2969 RMK A01 T00551028  RH  055%=      5-min Rain = 0
KST3 181246Z 22012KT 06/M03 A297 RMK A01 T00561027  RH  055%=      5-min Rain = 0
KST3 181247Z 23012KT 06/M03 A297 RMK A01 T00561027  RH  055%=      5-min Rain = 0
KST3 181248Z 22012KT 06/M03 A297 RMK A01 T00561027  RH  055%=      5-min Rain = 0
KST3 181249Z 22012KT 06/M03 A297 RMK A01 T00571026  RH  055%=      5-min Rain = 0
KST3 181250Z 22012KT 06/M03 A297 RMK A01 T00581027  RH  055%=      5-min Rain = 0
KST3 181251Z 22012KT 06/M03 A297 RMK A01 T00591026  RH  054%=      5-min Rain = 0
KST3 181252Z 22011KT 06/M03 A297 RMK A01 T00591027  RH  054%=      5-min Rain = 0
KST3 181253Z 22011KT 06/M03 A2969 RMK A01 T00591027  RH  054%=      5-min Rain = 0
KST3 181254Z 22011KT 06/M03 A2969 RMK A01 T00591026  RH  054%=      5-min Rain = 0
KST3 181255Z 22011KT 06/M03 A2969 RMK A01 T00601026  RH  054%=      5-min Rain = 0
KST3 181256Z 22011KT 06/M03 A2969 RMK A01 T00611026  RH  054%=      5-min Rain = 0
KST3 181257Z 23012KT 06/M03 A297 RMK A01 T00611026  RH  053%=      5-min Rain = 0
KST3 181258Z 23011KT 06/M03 A297 RMK A01 T00611026  RH  053%=      5-min Rain = 0
KST3 181259Z 22012KT 06/M03 A297 RMK A01 T00621026  RH  053%=      5-min Rain = 0
KST3 181300Z 22012KT 06/M03 A297 RMK A01 T00621026  RH  053%=      5-min Rain = 0
KST3 181301Z 22011KT 06/M03 A297 RMK A01 T00621026  RH  053%=      5-min Rain = 0
KST3 181302Z 23011KT 06/M03 A297 RMK A01 T00621026  RH  053%=      5-min Rain = 0
KST3 181303Z 23011KT 06/M03 A297 RMK A01 T00631026  RH  053%=      5-min Rain = 0
KST3 181304Z 22011KT 06/M03 A297 RMK A01 T00631026  RH  053%=      5-min Rain = 0
KST3 181305Z 22011KT 06/M03 A297 RMK A01 T00631026  RH  053%=      5-min Rain = 0
KST3 181306Z 22011KT 06/M03 A297 RMK A01 T00631026  RH  053%=      5-min Rain = 0
KST3 181307Z 22012KT 06/M03 A297 RMK A01 T00631026  RH  053%=      5-min Rain = 0
KST3 181308Z 22011KT 06/M03 A297 RMK A01 T00641026  RH  053%=      5-min Rain = 0
KST3 181309Z 22012KT 06/M03 A297 RMK A01 T00631026  RH  053%=      5-min Rain = 0
KST3 181310Z 22012KT 06/M03 A297 RMK A01 T00631026  RH  053%=      5-min Rain = 0
KST3 181311Z 22012KT 06/M03 A297 RMK A01 T00631025  RH  053%=      5-min Rain = 0
KST3 181312Z 22012KT 06/M03 A297 RMK A01 T00631025  RH  053%=      5-min Rain = 0
KST3 181313Z 22012KT 06/M03 A297 RMK A01 T00641026  RH  053%=      5-min Rain = 0
KST3 181314Z 23012KT 06/M03 A297 RMK A01 T00641025  RH  053%=      5-min Rain = 0
KST3 181315Z 23012KT 06/M03 A297 RMK A01 T00641026  RH  053%=      5-min Rain = 0
KST3 181316Z 23012KT 06/M03 A297 RMK A01 T00641025  RH  053%=      5-min Rain = 0
KST3 181317Z 23013KT 06/M03 A297 RMK A01 T00641025  RH  053%=      5-min Rain = 0
KST3 181318Z 23013KT 06/M03 A297 RMK A01 T00641025  RH  053%=      5-min Rain = 0
KST3 181319Z 22014KT 06/M03 A297 RMK A01 T00641025  RH  053%=      5-min Rain = 0
KST3 181320Z 22014KT 06/M03 A297 RMK A01 T00641025  RH  053%=      5-min Rain = 0
KST3 181321Z 22014KT 07/M03 A297 RMK A01 T00651025  RH  053%=      5-min Rain = 0
KST3 181322Z 23013KT 07/M03 A297 RMK A01 T00651025  RH  052%=      5-min Rain = 0
KST3 181323Z 22013KT 07/M03 A297 RMK A01 T00661025  RH  052%=      5-min Rain = 0
KST3 181324Z 22013KT 07/M03 A297 RMK A01 T00661025  RH  052%=      5-min Rain = 0
KST3 181325Z 22013KT 07/M03 A297 RMK A01 T00661025  RH  052%=      5-min Rain = 0
KST3 181326Z 22012KT 07/M03 A2969 RMK A01 T00661025  RH  052%=      5-min Rain = 0
KST3 181327Z 22012KT 07/M03 A2969 RMK A01 T00661025  RH  052%=      5-min Rain = 0
KST3 181328Z 22012KT 07/M03 A2969 RMK A01 T00661025  RH  052%=      5-min Rain = 0
KST3 181329Z 22012KT 07/M03 A2969 RMK A01 T00661025  RH  052%=      5-min Rain = 0
KST3 181330Z 21012KT 07/M03 A2969 RMK A01 T00661025  RH  052%=      5-min Rain = 0
KST3 181331Z 21011KT 07/M03 A2969 RMK A01 T00661025  RH  052%=      5-min Rain = 0
KST3 181332Z 21011KT 07/M03 A2969 RMK A01 T00651025  RH  052%=      5-min Rain = 0
KST3 181333Z 21011KT 07/M03 A2969 RMK A01 T00651025  RH  053%=      5-min Rain = 0
KST3 181334Z 21011KT 07/M02 A2969 RMK A01 T00651024  RH  053%=      5-min Rain = 0
KST3 181335Z 21011KT 06/M03 A2969 RMK A01 T00641025  RH  053%=      5-min Rain = 0
KST3 181336Z 21011KT 06/M03 A2969 RMK A01 T00631025  RH  053%=      5-min Rain = 0
KST3 181337Z 21012KT 06/M03 A2969 RMK A01 T00631025  RH  053%=      5-min Rain = 0
KST3 181338Z 21012KT 06/M03 A2969 RMK A01 T00631025  RH  053%=      5-min Rain = 0
KST3 181339Z 21011KT 06/M03 A2969 RMK A01 T00641025  RH  053%=      5-min Rain = 0
KST3 181340Z 21011KT 06/M03 A2969 RMK A01 T00631025  RH  053%=      5-min Rain = 0
KST3 181341Z 22011KT 06/M03 A2969 RMK A01 T00631025  RH  053%=      5-min Rain = 0
KST3 181342Z 22011KT 06/M02 A2969 RMK A01 T00631024  RH  053%=      5-min Rain = 0
KST3 181343Z 22012KT 06/M02 A2969 RMK A01 T00631024  RH  054%=      5-min Rain = 0
KST3 181344Z 22011KT 06/M02 A2969 RMK A01 T00631024  RH  054%=      5-min Rain = 0
KST3 181345Z 22012KT 06/M02 A2969 RMK A01 T00631024  RH  054%=      5-min Rain = 0
KST3 181346Z 22013KT 06/M02 A2969 RMK A01 T00641023  RH  054%=      5-min Rain = 0
KST3 181347Z 22012KT 06/M02 A2969 RMK A01 T00641023  RH  054%=      5-min Rain = 0
KST3 181348Z 22012KT 06/M02 A2969 RMK A01 T00641023  RH  054%=      5-min Rain = 0
KST3 181349Z 22013KT 07/M02 A2969 RMK A01 T00651022  RH  054%=      5-min Rain = 0
KST3 181350Z 22013KT 07/M02 A2969 RMK A01 T00661022  RH  053%=      5-min Rain = 0
KST3 181351Z 22013KT 07/M02 A2969 RMK A01 T00661022  RH  053%=      5-min Rain = 0
KST3 181352Z 22012KT 07/M02 A2969 RMK A01 T00671021  RH  053%=      5-min Rain = 0
KST3 181353Z 22012KT 07/M02 A2969 RMK A01 T00671021  RH  053%=      5-min Rain = 0
KST3 181354Z 22012KT 07/M02 A2969 RMK A01 T00681021  RH  053%=      5-min Rain = 0
KST3 181355Z 23011KT 07/M02 A2969 RMK A01 T00681021  RH  053%=      5-min Rain = 0
KST3 181356Z 23011KT 07/M02 A2969 RMK A01 T00701021  RH  053%=      5-min Rain = 0
KST3 181357Z 23010KT 07/M02 A2969 RMK A01 T00701021  RH  052%=      5-min Rain = 0
KST3 181358Z 23011KT 07/M02 A2969 RMK A01 T00711021  RH  052%=      5-min Rain = 0
KST3 181359Z 23010KT 07/M02 A2968 RMK A01 T00721021  RH  052%=      5-min Rain = 0
KST3 181400Z 23010KT 07/M02 A2968 RMK A01 T00721021  RH  052%=      5-min Rain = 0
KST3 181401Z 22010KT 07/M02 A2968 RMK A01 T00721021  RH  052%=      5-min Rain = 0
KST3 181402Z 22012KT 07/M02 A2968 RMK A01 T00711020  RH  052%=      5-min Rain = 0
KST3 181403Z 22012KT 07/M02 A2968 RMK A01 T00711020  RH  052%=      5-min Rain = 0
KST3 181404Z 22012KT 07/M02 A2968 RMK A01 T00701020  RH  053%=      5-min Rain = 0
KST3 181405Z 22012KT 07/M02 A2968 RMK A01 T00701019  RH  053%=      5-min Rain = 0
KST3 181406Z 22012KT 07/M02 A2968 RMK A01 T00691019  RH  053%=      5-min Rain = 0
KST3 181407Z 22012KT 07/M02 A2968 RMK A01 T00691018  RH  054%=      5-min Rain = 0
KST3 181408Z 22013KT 07/M02 A2968 RMK A01 T00701018  RH  054%=      5-min Rain = 0
KST3 181409Z 22014KT 07/M02 A2968 RMK A01 T00701017  RH  054%=      5-min Rain = 0
KST3 181410Z 22014KT 07/M02 A2968 RMK A01 T00711017  RH  054%=      5-min Rain = 0
KST3 181411Z 22014KT 07/M02 A2968 RMK A01 T00721016  RH  054%=      5-min Rain = 0
KST3 181412Z 22014KT 07/M02 A2968 RMK A01 T00721016  RH  053%=      5-min Rain = 0
KST3 181413Z 22015KT 07/M02 A2967 RMK A01 T00731016  RH  053%=      5-min Rain = 0
KST3 181414Z 22015KT 07/M02 A2967 RMK A01 T00731015  RH  053%=      5-min Rain = 0
KST3 181415Z 22015KT 07/M02 A2967 RMK A01 T00741015  RH  053%=      5-min Rain = 0
KST3 181416Z 22015KT 07/M02 A2967 RMK A01 T00741015  RH  053%=      5-min Rain = 0
KST3 181417Z 22016KT 08/M01 A2967 RMK A01 T00751014  RH  053%=      5-min Rain = 0
KST3 181418Z 22015KT 08/M01 A2967 RMK A01 T00761013  RH  053%=      5-min Rain = 0
KST3 181419Z 22016KT 08/M01 A2967 RMK A01 T00771013  RH  053%=      5-min Rain = 0
KST3 181420Z 22015KT 08/M01 A2967 RMK A01 T00771012  RH  053%=      5-min Rain = 0
KST3 181421Z 22017KT 08/M01 A2967 RMK A01 T00781012  RH  053%=      5-min Rain = 0
KST3 181422Z 23016KT 08/M01 A2967 RMK A01 T00791011  RH  053%=      5-min Rain = 0
KST3 181423Z 23016KT 08/M01 A2967 RMK A01 T00801010  RH  053%=      5-min Rain = 0
KST3 181424Z 23016KT 08/M01 A2967 RMK A01 T00801011  RH  053%=      5-min Rain = 0
KST3 181425Z 23015KT 08/M01 A2967 RMK A01 T00801010  RH  053%=      5-min Rain = 0
KST3 181426Z 23016KT 08/M01 A2967 RMK A01 T00801010  RH  053%=      5-min Rain = 0
KST3 181427Z 23015KT 08/M01 A2967 RMK A01 T00811009  RH  053%=      5-min Rain = 0
KST3 181428Z 23015KT 08/M01 A2967 RMK A01 T00811009  RH  053%=      5-min Rain = 0
KST3 181429Z 23015KT 08/M01 A2967 RMK A01 T00811008  RH  053%=      5-min Rain = 0
KST3 181430Z 23015KT 08/M01 A2967 RMK A01 T00821006  RH  054%=      5-min Rain = 0
KST3 181431Z 23016KT 08/M01 A2967 RMK A01 T00841005  RH  054%=      5-min Rain = 0
KST3 181432Z 23015KT 09/M00 A2967 RMK A01 T00851003  RH  054%=      5-min Rain = 0
KST3 181433Z 23014KT 09/M00 A2967 RMK A01 T00871003  RH  053%=      5-min Rain = 0
KST3 181434Z 24012KT 09/M00 A2967 RMK A01 T00871003  RH  053%=      5-min Rain = 0
KST3 181435Z 23013KT 09/M00 A2967 RMK A01 T00871002  RH  053%=      5-min Rain = 0
KST3 181436Z 23013KT 09/M00 A2967 RMK A01 T00881001  RH  054%=      5-min Rain = 0
KST3 181437Z 23013KT 09/M00 A2967 RMK A01 T00881001  RH  054%=      5-min Rain = 0
KST3 181438Z 23014KT 09/00 A2967 RMK A01 T008900-0  RH  054%=      5-min Rain = 0
KST3 181439Z 23013KT 09/00 A2967 RMK A01 T008900-0  RH  053%=      5-min Rain = 0
KST3 181440Z 23012KT 09/00 A2967 RMK A01 T00900000  RH  053%=      5-min Rain = 0
KST3 181441Z 23013KT 09/00 A2967 RMK A01 T00900001  RH  054%=      5-min Rain = 0
KST3 181442Z 23013KT 09/00 A2967 RMK A01 T00900001  RH  054%=      5-min Rain = 0
KST3 181443Z 24014KT 09/00 A2967 RMK A01 T00910002  RH  054%=      5-min Rain = 0
KST3 181444Z 23013KT 09/00 A2967 RMK A01 T00910003  RH  054%=      5-min Rain = 0
KST3 181445Z 23013KT 09/00 A2967 RMK A01 T00920003  RH  054%=      5-min Rain = 0
KST3 181446Z 23013KT 09/00 A2967 RMK A01 T00920004  RH  054%=      5-min Rain = 0
KST3 181447Z 24014KT 09/00 A2967 RMK A01 T00920004  RH  054%=      5-min Rain = 0
KST3 181448Z 23015KT 09/01 A2967 RMK A01 T00930005  RH  054%=      5-min Rain = 0
KST3 181449Z 24015KT 09/01 A2967 RMK A01 T00940006  RH  054%=      5-min Rain = 0
KST3 181450Z 24015KT 10/01 A2967 RMK A01 T00950007  RH  054%=      5-min Rain = 0
KST3 181451Z 24016KT 10/01 A2967 RMK A01 T00960008  RH  054%=      5-min Rain = 0
KST3 181452Z 24016KT 10/01 A2967 RMK A01 T00970009  RH  054%=      5-min Rain = 0
KST3 181453Z 23017KT 10/01 A2967 RMK A01 T00980009  RH  054%=      5-min Rain = 0
KST3 181454Z 23017KT 10/01 A2967 RMK A01 T01000011  RH  054%=      5-min Rain = 0
KST3 181455Z 23018KT 10/01 A2967 RMK A01 T01010012  RH  054%=      5-min Rain = 0
KST3 181456Z 23018KT 10/01 A2967 RMK A01 T01020012  RH  054%=      5-min Rain = 0
KST3 181457Z 23018KT 10/01 A2967 RMK A01 T01030013  RH  053%=      5-min Rain = 0
KST3 181458Z 23020KT 10/01 A2967 RMK A01 T01040013  RH  053%=      5-min Rain = 0
KST3 181459Z 23017G22KT 11/01 A2967 RMK A01 T01060014  RH  053%=      5-min Rain = 0
KST3 181500Z 23018KT 11/01 A2967 RMK A01 T01060014  RH  053%=      5-min Rain = 0
KST3 181501Z 24016KT 11/01 A2967 RMK A01 T01060014  RH  053%=      5-min Rain = 0
KST3 181502Z 23020KT 11/02 A2967 RMK A01 T01070015  RH  053%=      5-min Rain = 0
KST3 181503Z 23021KT 11/02 A2967 RMK A01 T01080016  RH  053%=      5-min Rain = 0
KST3 181504Z 24018KT 11/02 A2967 RMK A01 T01090016  RH  053%=      5-min Rain = 0
KST3 181505Z 24021KT 11/02 A2967 RMK A01 T01100016  RH  052%=      5-min Rain = 0
KST3 181506Z 24021KT 11/02 A2967 RMK A01 T01110016  RH  052%=      5-min Rain = 0
KST3 181507Z 24017KT 11/02 A2967 RMK A01 T01120016  RH  052%=      5-min Rain = 0
KST3 181508Z 25018KT 11/02 A2967 RMK A01 T01120017  RH  052%=      5-min Rain = 0
KST3 181509Z 24016G21KT 11/02 A2967 RMK A01 T01120017  RH  052%=      5-min Rain = 0
KST3 181510Z 25018KT 11/02 A2967 RMK A01 T01120017  RH  052%=      5-min Rain = 0
KST3 181511Z 24016G21KT 11/02 A2967 RMK A01 T01120017  RH  052%=      5-min Rain = 0
KST3 181512Z 25019KT 11/02 A2967 RMK A01 T01120017  RH  052%=      5-min Rain = 0
KST3 181513Z 24015KT 11/02 A2967 RMK A01 T01130017  RH  052%=      5-min Rain = 0
KST3 181514Z 24017G22KT 11/02 A2967 RMK A01 T01130018  RH  052%=      5-min Rain = 0
KST3 181515Z 24017KT 11/02 A2967 RMK A01 T01130017  RH  052%=      5-min Rain = 0
KST3 181516Z 24019KT 11/02 A2967 RMK A01 T01130018  RH  052%=      5-min Rain = 0
KST3 181517Z 24021KT 11/02 A2967 RMK A01 T01140018  RH  052%=      5-min Rain = 0
KST3 181518Z 24017KT 11/02 A2967 RMK A01 T01140018  RH  051%=      5-min Rain = 0
KST3 181519Z 24016KT 11/02 A2967 RMK A01 T01140018  RH  052%=      5-min Rain = 0
KST3 181520Z 24017G23KT 11/02 A2966 RMK A01 T01140018  RH  052%=      5-min Rain = 0
KST3 181521Z 24020KT 11/02 A2966 RMK A01 T01140018  RH  052%=      5-min Rain = 0
KST3 181522Z 24016KT 12/02 A2966 RMK A01 T01150018  RH  052%=      5-min Rain = 0
KST3 181523Z 24018KT 12/02 A2966 RMK A01 T01150018  RH  052%=      5-min Rain = 0
KST3 181524Z 24017KT 12/02 A2966 RMK A01 T01150019  RH  052%=      5-min Rain = 0
KST3 181525Z 24019KT 12/02 A2966 RMK A01 T01150018  RH  052%=      5-min Rain = 0
KST3 181526Z 24022KT 12/02 A2966 RMK A01 T01150018  RH  051%=      5-min Rain = 0
KST3 181527Z 24020KT 12/02 A2966 RMK A01 T01150018  RH  051%=      5-min Rain = 0
KST3 181528Z 24018G23KT 12/02 A2966 RMK A01 T01160018  RH  051%=      5-min Rain = 0
KST3 181529Z 24023G28KT 12/02 A2966 RMK A01 T01160019  RH  051%=      5-min Rain = 0
KST3 181530Z 24021KT 12/02 A2966 RMK A01 T01160018  RH  051%=      5-min Rain = 0
KST3 181531Z 24020KT 12/02 A2966 RMK A01 T01160019  RH  051%=      5-min Rain = 0
KST3 181532Z 24022G27KT 12/02 A2966 RMK A01 T01160018  RH  051%=      5-min Rain = 0
KST3 181533Z 24021KT 12/02 A2966 RMK A01 T01160018  RH  051%=      5-min Rain = 0
KST3 181534Z 24019KT 12/02 A2965 RMK A01 T01160018  RH  051%=      5-min Rain = 0
KST3 181535Z 24021G27KT 12/02 A2965 RMK A01 T01160018  RH  051%=      5-min Rain = 0
KST3 181536Z 24020KT 12/02 A2965 RMK A01 T01160018  RH  051%=      5-min Rain = 0
KST3 181537Z 24022KT 12/02 A2965 RMK A01 T01160019  RH  051%=      5-min Rain = 0
KST3 181538Z 24020G25KT 12/02 A2965 RMK A01 T01160018  RH  051%=      5-min Rain = 0
KST3 181539Z 24020KT 12/02 A2965 RMK A01 T01160018  RH  051%=      5-min Rain = 0
KST3 181540Z 24020G25KT 12/02 A2966 RMK A01 T01160019  RH  051%=      5-min Rain = 0
KST3 181541Z 24020KT 12/02 A2966 RMK A01 T01160018  RH  051%=      5-min Rain = 0
KST3 181542Z 24021KT 12/02 A2966 RMK A01 T01160018  RH  051%=      5-min Rain = 0
KST3 181543Z 23020KT 12/02 A2966 RMK A01 T01160018  RH  051%=      5-min Rain = 0
KST3 181544Z 24018KT 12/02 A2966 RMK A01 T01170018  RH  051%=      5-min Rain = 0
KST3 181545Z 24021KT 12/02 A2966 RMK A01 T01160018  RH  051%=      5-min Rain = 0
KST3 181546Z 24020KT 12/02 A2966 RMK A01 T01160018  RH  051%=      5-min Rain = 0
KST3 181547Z 24021KT 12/02 A2966 RMK A01 T01160018  RH  051%=      5-min Rain = 0
KST3 181548Z 24020KT 12/02 A2966 RMK A01 T01170018  RH  051%=      5-min Rain = 0
KST3 181549Z 24018KT 12/02 A2966 RMK A01 T01160018  RH  051%=      5-min Rain = 0
KST3 181550Z 24021KT 12/02 A2965 RMK A01 T01160018  RH  051%=      5-min Rain = 0
KST3 181551Z 24022KT 12/02 A2965 RMK A01 T01170018  RH  051%=      5-min Rain = 0
KST3 181552Z 24020KT 12/02 A2966 RMK A01 T01170018  RH  051%=      5-min Rain = 0
KST3 181553Z 24019KT 12/02 A2966 RMK A01 T01180019  RH  051%=      5-min Rain = 0
KST3 181554Z 24020KT 12/02 A2966 RMK A01 T01180019  RH  051%=      5-min Rain = 0
KST3 181555Z 24020KT 12/02 A2966 RMK A01 T01180019  RH  051%=      5-min Rain = 0
KST3 181556Z 24017KT 12/02 A2966 RMK A01 T01180019  RH  051%=      5-min Rain = 0
KST3 181557Z 24017KT 12/02 A2966 RMK A01 T01180019  RH  051%=      5-min Rain = 0
KST3 181558Z 24018KT 12/02 A2966 RMK A01 T01180019  RH  051%=      5-min Rain = 0
KST3 181559Z 24018G23KT 12/02 A2966 RMK A01 T01190020  RH  051%=      5-min Rain = 0
KST3 181600Z 24018KT 12/02 A2966 RMK A01 T01190020  RH  051%=      5-min Rain = 0
KST3 181601Z 24018KT 12/02 A2966 RMK A01 T01190020  RH  051%=      5-min Rain = 0
KST3 181602Z 24015KT 12/02 A2966 RMK A01 T01190020  RH  050%=      5-min Rain = 0
KST3 181603Z 24019KT 12/02 A2966 RMK A01 T01200020  RH  050%=      5-min Rain = 0
KST3 181604Z 24018KT 12/02 A2966 RMK A01 T01200020  RH  050%=      5-min Rain = 0
KST3 181605Z 24022KT 12/02 A2965 RMK A01 T01200020  RH  050%=      5-min Rain = 0
KST3 181606Z 24022KT 12/02 A2965 RMK A01 T01210020  RH  050%=      5-min Rain = 0
KST3 181607Z 24018G23KT 12/02 A2966 RMK A01 T01210020  RH  050%=      5-min Rain = 0
KST3 181608Z 24019KT 12/02 A2965 RMK A01 T01220020  RH  050%=      5-min Rain = 0
KST3 181609Z 24019KT 12/02 A2965 RMK A01 T01220020  RH  050%=      5-min Rain = 0
KST3 181610Z 25019KT 12/02 A2965 RMK A01 T01220020  RH  050%=      5-min Rain = 0
KST3 181611Z 25021KT 12/02 A2966 RMK A01 T01230021  RH  050%=      5-min Rain = 0
KST3 181612Z 24018G23KT 12/02 A2966 RMK A01 T01240020  RH  049%=      5-min Rain = 0
KST3 181613Z 24017KT 12/02 A2966 RMK A01 T01240021  RH  049%=      5-min Rain = 0
KST3 181614Z 24021KT 12/02 A2965 RMK A01 T01240020  RH  049%=      5-min Rain = 0
KST3 181615Z 24019KT 13/02 A2965 RMK A01 T01250020  RH  049%=      5-min Rain = 0
KST3 181616Z 24023KT 13/02 A2965 RMK A01 T01250020  RH  049%=      5-min Rain = 0
KST3 181617Z 24019KT 13/02 A2965 RMK A01 T01250020  RH  049%=      5-min Rain = 0
KST3 181618Z 24016KT 13/02 A2965 RMK A01 T01250021  RH  049%=      5-min Rain = 0
KST3 181619Z 24017KT 13/02 A2965 RMK A01 T01250021  RH  049%=      5-min Rain = 0
KST3 181620Z 25022KT 13/02 A2965 RMK A01 T01250020  RH  049%=      5-min Rain = 0
KST3 181621Z 24018KT 13/02 A2965 RMK A01 T01250019  RH  049%=      5-min Rain = 0
KST3 181622Z 25019KT 13/02 A2965 RMK A01 T01250020  RH  049%=      5-min Rain = 0
KST3 181623Z 24020KT 12/02 A2965 RMK A01 T01240020  RH  049%=      5-min Rain = 0
KST3 181624Z 24017KT 12/02 A2965 RMK A01 T01240020  RH  049%=      5-min Rain = 0
KST3 181625Z 25019KT 12/02 A2965 RMK A01 T01240020  RH  049%=      5-min Rain = 0
KST3 181626Z 24018KT 12/02 A2965 RMK A01 T01240020  RH  049%=      5-min Rain = 0
KST3 181627Z 24020KT 12/02 A2965 RMK A01 T01230020  RH  049%=      5-min Rain = 0
KST3 181628Z 25021KT 12/02 A2965 RMK A01 T01230020  RH  049%=      5-min Rain = 0
KST3 181629Z 25019KT 12/02 A2965 RMK A01 T01230019  RH  049%=      5-min Rain = 0
KST3 181630Z 25018KT 12/02 A2965 RMK A01 T01220020  RH  049%=      5-min Rain = 0
KST3 181631Z 24016KT 12/02 A2965 RMK A01 T01220020  RH  049%=      5-min Rain = 0
KST3 181632Z 24019KT 12/02 A2965 RMK A01 T01220020  RH  050%=      5-min Rain = 0
KST3 181633Z 25017G22KT 12/02 A2965 RMK A01 T01220020  RH  050%=      5-min Rain = 0
KST3 181634Z 25018KT 12/02 A2965 RMK A01 T01220020  RH  050%=      5-min Rain = 0
KST3 181635Z 25017KT 12/02 A2965 RMK A01 T01220020  RH  050%=      5-min Rain = 0
KST3 181636Z 24019KT 12/02 A2965 RMK A01 T01220020  RH  050%=      5-min Rain = 0
KST3 181637Z 24017KT 12/02 A2965 RMK A01 T01220020  RH  050%=      5-min Rain = 0
KST3 181638Z 24018G23KT 12/02 A2965 RMK A01 T01220020  RH  050%=      5-min Rain = 0
KST3 181639Z 24016KT 12/02 A2965 RMK A01 T01220020  RH  050%=      5-min Rain = 0
KST3 181640Z 24016KT 12/02 A2966 RMK A01 T01220021  RH  050%=      5-min Rain = 0
KST3 181641Z 25016G22KT 12/02 A2966 RMK A01 T01220021  RH  050%=      5-min Rain = 0
KST3 181642Z 25017KT 12/02 A2966 RMK A01 T01220021  RH  050%=      5-min Rain = 0
KST3 181643Z 24020KT 12/02 A2965 RMK A01 T01220021  RH  050%=      5-min Rain = 0
KST3 181644Z 25019KT 12/02 A2965 RMK A01 T01220021  RH  050%=      5-min Rain = 0
KST3 181645Z 24019KT 12/02 A2965 RMK A01 T01220021  RH  050%=      5-min Rain = 0
KST3 181646Z 24018KT 12/02 A2965 RMK A01 T01220021  RH  050%=      5-min Rain = 0
KST3 181647Z 24016KT 12/02 A2965 RMK A01 T01220021  RH  050%=      5-min Rain = 0
KST3 181648Z 25016G21KT 12/02 A2965 RMK A01 T01220021  RH  050%=      5-min Rain = 0
KST3 181649Z 25016KT 12/02 A2965 RMK A01 T01220021  RH  050%=      5-min Rain = 0
KST3 181650Z 24013G18KT 12/02 A2965 RMK A01 T01220022  RH  050%=      5-min Rain = 0
KST3 181651Z 24016G21KT 12/02 A2965 RMK A01 T01230022  RH  050%=      5-min Rain = 0
KST3 181652Z 24017KT 12/02 A2965 RMK A01 T01230022  RH  050%=      5-min Rain = 0
KST3 181653Z 24015KT 12/02 A2965 RMK A01 T01230022  RH  050%=      5-min Rain = 0
KST3 181654Z 24016KT 12/02 A2965 RMK A01 T01240023  RH  050%=      5-min Rain = 0
KST3 181655Z 24016KT 12/02 A2965 RMK A01 T01240022  RH  050%=      5-min Rain = 0
KST3 181656Z 25017KT 12/02 A2965 RMK A01 T01240022  RH  050%=      5-min Rain = 0
KST3 181657Z 24018KT 13/02 A2965 RMK A01 T01250023  RH  050%=      5-min Rain = 0
KST3 181658Z 24015KT 13/02 A2965 RMK A01 T01260023  RH  050%=      5-min Rain = 0
KST3 181659Z 24018KT 13/02 A2965 RMK A01 T01260023  RH  049%=      5-min Rain = 0
KST3 181700Z 24017KT 13/02 A2965 RMK A01 T01270022  RH  049%=      5-min Rain = 0
KST3 181701Z 24015KT 13/02 A2965 RMK A01 T01270023  RH  049%=      5-min Rain = 0
KST3 181702Z 24014KT 13/02 A2965 RMK A01 T01270023  RH  049%=      5-min Rain = 0
KST3 181703Z 24015KT 13/02 A2965 RMK A01 T01280024  RH  049%=      5-min Rain = 0
KST3 181704Z 24015KT 13/02 A2966 RMK A01 T01280024  RH  049%=      5-min Rain = 0
KST3 181705Z 24017KT 13/02 A2966 RMK A01 T01280024  RH  049%=      5-min Rain = 0
KST3 181706Z 25017KT 13/02 A2965 RMK A01 T01280023  RH  049%=      5-min Rain = 0
KST3 181707Z 25014KT 13/02 A2966 RMK A01 T01270023  RH  049%=      5-min Rain = 0
KST3 181708Z 24013KT 13/02 A2966 RMK A01 T01270024  RH  049%=      5-min Rain = 0
KST3 181709Z 24014KT 13/02 A2965 RMK A01 T01270024  RH  049%=      5-min Rain = 0
KST3 181710Z 25015KT 13/02 A2965 RMK A01 T01270024  RH  049%=      5-min Rain = 0
KST3 181711Z 24015KT 13/02 A2965 RMK A01 T01270024  RH  049%=      5-min Rain = 0
KST3 181712Z 24014KT 13/02 A2965 RMK A01 T01260024  RH  050%=      5-min Rain = 0
KST3 181713Z 24014KT 13/02 A2965 RMK A01 T01260024  RH  050%=      5-min Rain = 0
KST3 181714Z 24018KT 13/03 A2965 RMK A01 T01270025  RH  050%=      5-min Rain = 0
KST3 181715Z 25017KT 13/02 A2965 RMK A01 T01260024  RH  050%=      5-min Rain = 0
KST3 181716Z 24016KT 13/03 A2965 RMK A01 T01270025  RH  050%=      5-min Rain = 0
KST3 181717Z 24015KT 13/03 A2965 RMK A01 T01260025  RH  050%=      5-min Rain = 0
KST3 181718Z 24017KT 13/03 A2965 RMK A01 T01270025  RH  050%=      5-min Rain = 0
KST3 181719Z 24014KT 13/03 A2965 RMK A01 T01270025  RH  050%=      5-min Rain = 0
KST3 181720Z 25018KT 13/03 A2964 RMK A01 T01270025  RH  050%=      5-min Rain = 0
KST3 181721Z 24016KT 13/03 A2964 RMK A01 T01270025  RH  050%=      5-min Rain = 0
KST3 181722Z 24015KT 13/03 A2964 RMK A01 T01280026  RH  050%=      5-min Rain = 0
KST3 181723Z 24017KT 13/03 A2964 RMK A01 T01280026  RH  050%=      5-min Rain = 0
KST3 181724Z 24016KT 13/03 A2964 RMK A01 T01290026  RH  050%=      5-min Rain = 0
KST3 181725Z 24016KT 13/03 A2964 RMK A01 T01290026  RH  050%=      5-min Rain = 0
KST3 181726Z 24014KT 13/03 A2964 RMK A01 T01290026  RH  050%=      5-min Rain = 0
KST3 181727Z 24017KT 13/03 A2964 RMK A01 T01300026  RH  049%=      5-min Rain = 0
KST3 181728Z 24018KT 13/03 A2964 RMK A01 T01300026  RH  049%=      5-min Rain = 0
KST3 181729Z 25020KT 13/03 A2964 RMK A01 T01300026  RH  049%=      5-min Rain = 0
KST3 181730Z 25020G25KT 13/03 A2964 RMK A01 T01310026  RH  049%=      5-min Rain = 0
KST3 181731Z 25022KT 13/03 A2964 RMK A01 T01320026  RH  049%=      5-min Rain = 0
KST3 181732Z 25020G25KT 13/03 A2964 RMK A01 T01320026  RH  049%=      5-min Rain = 0
KST3 181733Z 25022KT 13/03 A2964 RMK A01 T01320026  RH  048%=      5-min Rain = 0
KST3 181734Z 25021KT 13/03 A2964 RMK A01 T01330026  RH  048%=      5-min Rain = 0
KST3 181735Z 25020KT 13/03 A2964 RMK A01 T01330026  RH  048%=      5-min Rain = 0
KST3 181736Z 25019KT 13/03 A2964 RMK A01 T01330026  RH  048%=      5-min Rain = 0
KST3 181737Z 25020KT 13/03 A2964 RMK A01 T01330026  RH  048%=      5-min Rain = 0
KST3 181738Z 25018KT 13/03 A2964 RMK A01 T01340027  RH  048%=      5-min Rain = 0
KST3 181739Z 25021KT 13/03 A2963 RMK A01 T01340026  RH  048%=      5-min Rain = 0
KST3 181740Z 25020KT 13/03 A2963 RMK A01 T01340027  RH  048%=      5-min Rain = 0
KST3 181741Z 25018KT 14/03 A2963 RMK A01 T01350027  RH  048%=      5-min Rain = 0
KST3 181742Z 24018KT 14/03 A2963 RMK A01 T01350027  RH  048%=      5-min Rain = 0
KST3 181743Z 25017G22KT 13/03 A2963 RMK A01 T01340027  RH  048%=      5-min Rain = 0
KST3 181744Z 24018KT 14/03 A2963 RMK A01 T01350028  RH  048%=      5-min Rain = 0
KST3 181745Z 24016KT 14/03 A2963 RMK A01 T01350028  RH  048%=      5-min Rain = 0
KST3 181746Z 24019G24KT 14/03 A2963 RMK A01 T01360028  RH  048%=      5-min Rain = 0
KST3 181747Z 24018KT 14/03 A2963 RMK A01 T01360028  RH  048%=      5-min Rain = 0
KST3 181748Z 24016KT 14/03 A2963 RMK A01 T01360028  RH  048%=      5-min Rain = 0
KST3 181749Z 25016G22KT 14/03 A2963 RMK A01 T01370029  RH  048%=      5-min Rain = 0
KST3 181750Z 24018KT 14/03 A2963 RMK A01 T01380029  RH  048%=      5-min Rain = 0
KST3 181751Z 25017KT 14/03 A2963 RMK A01 T01380029  RH  047%=      5-min Rain = 0
KST3 181752Z 25016KT 14/03 A2963 RMK A01 T01390029  RH  047%=      5-min Rain = 0
KST3 181753Z 25017KT 14/03 A2963 RMK A01 T01400030  RH  047%=      5-min Rain = 0
KST3 181754Z 25018G23KT 14/03 A2963 RMK A01 T01410029  RH  047%=      5-min Rain = 0
KST3 181755Z 25020KT 14/03 A2963 RMK A01 T01420029  RH  047%=      5-min Rain = 0
KST3 181756Z 25019KT 14/03 A2963 RMK A01 T01420029  RH  047%=      5-min Rain = 0
KST3 181757Z 24018KT 14/03 A2963 RMK A01 T01420029  RH  047%=      5-min Rain = 0
KST3 181758Z 25018KT 14/03 A2963 RMK A01 T01430030  RH  047%=      5-min Rain = 0
KST3 181759Z 26019KT 14/03 A2963 RMK A01 T01430030  RH  047%=      5-min Rain = 0
KST3 181800Z 25021G26KT 14/03 A2962 RMK A01 T01420029  RH  046%=      5-min Rain = 0
KST3 181801Z 24021KT 14/03 A2962 RMK A01 T01420029  RH  046%=      5-min Rain = 0
KST3 181802Z 25018KT 14/03 A2962 RMK A01 T01420029  RH  046%=      5-min Rain = 0
KST3 181803Z 25021KT 14/03 A2962 RMK A01 T01420029  RH  047%=      5-min Rain = 0
KST3 181804Z 25019KT 14/03 A2962 RMK A01 T01420029  RH  046%=      5-min Rain = 0
KST3 181805Z 25016KT 14/03 A2962 RMK A01 T01420029  RH  047%=      5-min Rain = 0
KST3 181806Z 25020KT 14/03 A2962 RMK A01 T01420030  RH  047%=      5-min Rain = 0
KST3 181807Z 26018KT 14/03 A2962 RMK A01 T01430029  RH  046%=      5-min Rain = 0
KST3 181808Z 25015KT 14/03 A2962 RMK A01 T01430030  RH  047%=      5-min Rain = 0
KST3 181809Z 26017G22KT 14/03 A2962 RMK A01 T01430030  RH  047%=      5-min Rain = 0
KST3 181810Z 26018KT 14/03 A2962 RMK A01 T01420029  RH  046%=      5-min Rain = 0
KST3 181811Z 25017KT 14/03 A2962 RMK A01 T01420030  RH  047%=      5-min Rain = 0
KST3 181812Z 25016KT 14/03 A2962 RMK A01 T01410030  RH  047%=      5-min Rain = 0
KST3 181813Z 25016KT 14/03 A2962 RMK A01 T01410030  RH  047%=      5-min Rain = 0
KST3 181814Z 25018KT 14/03 A2962 RMK A01 T01410030  RH  047%=      5-min Rain = 0
KST3 181815Z 25016KT 14/03 A2962 RMK A01 T01400029  RH  047%=      5-min Rain = 0
KST3 181816Z 25015KT 14/03 A2962 RMK A01 T01390029  RH  047%=      5-min Rain = 0
KST3 181817Z 25015KT 14/03 A2962 RMK A01 T01390029  RH  047%=      5-min Rain = 0
KST3 181818Z 25017KT 14/03 A2962 RMK A01 T01390029  RH  047%=      5-min Rain = 0
KST3 181819Z 26015KT 14/03 A2962 RMK A01 T01390029  RH  047%=      5-min Rain = 0
KST3 181820Z 26018KT 14/03 A2962 RMK A01 T01390029  RH  047%=      5-min Rain = 0
KST3 181821Z 26019KT 14/03 A2962 RMK A01 T01400028  RH  047%=      5-min Rain = 0
KST3 181822Z 26020KT 14/03 A2962 RMK A01 T01390028  RH  047%=      5-min Rain = 0
KST3 181823Z 26019KT 14/03 A2962 RMK A01 T01390027  RH  047%=      5-min Rain = 0
KST3 181824Z 25016KT 14/03 A2962 RMK A01 T01390027  RH  047%=      5-min Rain = 0
KST3 181825Z 26019KT 14/03 A2962 RMK A01 T01390028  RH  047%=      5-min Rain = 0
KST3 181826Z 26019KT 14/03 A2962 RMK A01 T01390027  RH  047%=      5-min Rain = 0
KST3 181827Z 26020G26KT 14/03 A2962 RMK A01 T01390026  RH  046%=      5-min Rain = 0
KST3 181828Z 26019KT 14/03 A2962 RMK A01 T01400026  RH  046%=      5-min Rain = 0
KST3 181829Z 26021KT 14/03 A2962 RMK A01 T01400025  RH  046%=      5-min Rain = 0
KST3 181830Z 26019G25KT 14/03 A2962 RMK A01 T01400025  RH  046%=      5-min Rain = 0
KST3 181831Z 26016KT 14/03 A2962 RMK A01 T01400025  RH  046%=      5-min Rain = 0
KST3 181832Z 26018G23KT 14/03 A2962 RMK A01 T01400025  RH  046%=      5-min Rain = 0
KST3 181833Z 26020KT 14/03 A2962 RMK A01 T01400025  RH  046%=      5-min Rain = 0
KST3 181834Z 26020G25KT 14/03 A2962 RMK A01 T01400025  RH  046%=      5-min Rain = 0
KST3 181835Z 26020KT 14/02 A2962 RMK A01 T01390024  RH  046%=      5-min Rain = 0
KST3 181836Z 26019KT 14/02 A2962 RMK A01 T01390024  RH  046%=      5-min Rain = 0
KST3 181837Z 26021G27KT 14/02 A2962 RMK A01 T01380024  RH  046%=      5-min Rain = 0
KST3 181838Z 27021KT 14/02 A2962 RMK A01 T01380024  RH  046%=      5-min Rain = 0
KST3 181839Z 28019KT 14/02 A2962 RMK A01 T01370024  RH  046%=      5-min Rain = 0
KST3 181840Z 28021G30KT 14/02 A2961 RMK A01 T01370024  RH  046%=      5-min Rain = 0
KST3 181841Z 27027G34KT 14/02 A2961 RMK A01 T01370021  RH  046%=      5-min Rain = 0
KST3 181842Z 26024KT 14/02 A2961 RMK A01 T01370023  RH  046%=      5-min Rain = 0
KST3 181843Z 27022KT 14/02 A2961 RMK A01 T01370023  RH  046%=      5-min Rain = 0
KST3 181844Z 25020KT 14/02 A2961 RMK A01 T01380024  RH  046%=      5-min Rain = 0
KST3 181845Z 25020KT 14/02 A2961 RMK A01 T01390024  RH  046%=      5-min Rain = 0
KST3 181846Z 26019KT 14/03 A2961 RMK A01 T01400025  RH  046%=      5-min Rain = 0
KST3 181847Z 27018KT 14/03 A2961 RMK A01 T01410026  RH  046%=      5-min Rain = 0
KST3 181848Z 27017KT 14/03 A2961 RMK A01 T01420025  RH  045%=      5-min Rain = 0
KST3 181849Z 26014KT 14/03 A2961 RMK A01 T01440026  RH  045%=      5-min Rain = 0
KST3 181850Z 26014KT 15/03 A2961 RMK A01 T01460026  RH  045%=      5-min Rain = 0
KST3 181851Z 27014KT 15/03 A2961 RMK A01 T01460026  RH  044%=      5-min Rain = 0
KST3 181852Z 27016KT 15/03 A2961 RMK A01 T01460026  RH  044%=      5-min Rain = 0
KST3 181853Z 27016KT 15/03 A2961 RMK A01 T01470025  RH  044%=      5-min Rain = 0
KST3 181854Z 26015G20KT 15/02 A2961 RMK A01 T01470024  RH  043%=      5-min Rain = 0
KST3 181855Z 26020KT 15/02 A296 RMK A01 T01460024  RH  044%=      5-min Rain = 0
KST3 181856Z 26017KT 14/02 A296 RMK A01 T01440024  RH  044%=      5-min Rain = 0
KST3 181857Z 26017KT 14/02 A296 RMK A01 T01440024  RH  044%=      5-min Rain = 0
KST3 181858Z 26017KT 14/02 A296 RMK A01 T01430022  RH  044%=      5-min Rain = 0
KST3 181859Z 27013KT 14/02 A296 RMK A01 T01430022  RH  044%=      5-min Rain = 0
KST3 181900Z 27013KT 14/02 A296 RMK A01 T01440022  RH  044%=      5-min Rain = 0
KST3 181901Z 27011KT 14/02 A296 RMK A01 T01440022  RH  043%=      5-min Rain = 0
KST3 181902Z 27014KT 15/02 A296 RMK A01 T01450022  RH  044%=      5-min Rain = 0
KST3 181903Z 27014KT 15/02 A296 RMK A01 T01450021  RH  043%=      5-min Rain = 0
KST3 181904Z 27011G16KT 15/02 A296 RMK A01 T01450021  RH  043%=      5-min Rain = 0
KST3 181905Z 28014KT 15/02 A2959 RMK A01 T01450021  RH  043%=      5-min Rain = 0
KST3 181906Z 27015KT 15/02 A2959 RMK A01 T01460020  RH  042%=      5-min Rain = 0
KST3 181907Z 27013KT 15/02 A2959 RMK A01 T01470021  RH  042%=      5-min Rain = 0
KST3 181908Z 28011KT 15/02 A2959 RMK A01 T01490023  RH  042%=      5-min Rain = 0
KST3 181909Z 28015KT 15/03 A2959 RMK A01 T01530025  RH  042%=      5-min Rain = 0
KST3 181910Z 28014KT 16/03 A2959 RMK A01 T01560027  RH  042%=      5-min Rain = 0
KST3 181911Z 28015KT 16/03 A2959 RMK A01 T01600028  RH  041%=      5-min Rain = 0
KST3 181912Z 28016KT 16/03 A2958 RMK A01 T01630026  RH  040%=      5-min Rain = 0
KST3 181913Z 28012KT 16/03 A2958 RMK A01 T01630026  RH  040%=      5-min Rain = 0
KST3 181914Z 27013KT 17/03 A2958 RMK A01 T01660027  RH  039%=      5-min Rain = 0
KST3 181915Z 28015KT 17/02 A2958 RMK A01 T01680024  RH  038%=      5-min Rain = 0
KST3 181916Z 28014KT 17/02 A2957 RMK A01 T01660024  RH  038%=      5-min Rain = 0
KST3 181917Z 29014KT 17/02 A2957 RMK A01 T01660022  RH  038%=      5-min Rain = 0
KST3 181918Z 30014KT 17/02 A2957 RMK A01 T01680019  RH  037%=      5-min Rain = 0
KST3 181919Z 29015KT 17/02 A2957 RMK A01 T01670018  RH  037%=      5-min Rain = 0
KST3 181920Z 29016KT 17/02 A2957 RMK A01 T01650019  RH  037%=      5-min Rain = 0
KST3 181921Z 29013KT 17/02 A2957 RMK A01 T01650019  RH  037%=      5-min Rain = 0
KST3 181922Z 29013KT 16/02 A2957 RMK A01 T01640020  RH  038%=      5-min Rain = 0
KST3 181923Z 30014KT 17/02 A2957 RMK A01 T01650019  RH  037%=      5-min Rain = 0
KST3 181924Z 29013KT 16/02 A2957 RMK A01 T01640017  RH  037%=      5-min Rain = 0
KST3 181925Z 28014KT 16/02 A2957 RMK A01 T01640018  RH  037%=      5-min Rain = 0
KST3 181926Z 28016KT 17/02 A2957 RMK A01 T01660017  RH  037%=      5-min Rain = 0
KST3 181927Z 28016KT 17/02 A2957 RMK A01 T01670016  RH  036%=      5-min Rain = 0
KST3 181928Z 28016KT 17/02 A2957 RMK A01 T01680017  RH  036%=      5-min Rain = 0
KST3 181929Z 28017KT 17/02 A2958 RMK A01 T01700015  RH  035%=      5-min Rain = 0
KST3 181930Z 29015KT 17/01 A2958 RMK A01 T01710014  RH  035%=      5-min Rain = 0
KST3 181931Z 27016KT 17/01 A2957 RMK A01 T01710014  RH  035%=      5-min Rain = 0
KST3 181932Z 28017KT 17/01 A2957 RMK A01 T01710013  RH  035%=      5-min Rain = 0
KST3 181933Z 29017KT 17/01 A2957 RMK A01 T01710014  RH  035%=      5-min Rain = 0
KST3 181934Z 28015KT 17/01 A2957 RMK A01 T01710014  RH  035%=      5-min Rain = 0
KST3 181935Z 28015KT 17/01 A2957 RMK A01 T01720014  RH  034%=      5-min Rain = 0
KST3 181936Z 27014G19KT 18/01 A2957 RMK A01 T01750014  RH  034%=      5-min Rain = 0
KST3 181937Z 26014KT 18/01 A2957 RMK A01 T01770013  RH  033%=      5-min Rain = 0
KST3 181938Z 28013KT 18/01 A2957 RMK A01 T01770013  RH  033%=      5-min Rain = 0
KST3 181939Z 27016KT 18/01 A2957 RMK A01 T01760013  RH  033%=      5-min Rain = 0
KST3 181940Z 27013KT 17/01 A2957 RMK A01 T01710010  RH  034%=      5-min Rain = 0
KST3 181941Z 27011KT 17/01 A2957 RMK A01 T01690011  RH  034%=      5-min Rain = 0
KST3 181942Z 28013KT 17/01 A2957 RMK A01 T01700012  RH  034%=      5-min Rain = 0
KST3 181943Z 29012KT 17/01 A2957 RMK A01 T01710012  RH  034%=      5-min Rain = 0
KST3 181944Z 29016KT 17/01 A2957 RMK A01 T01710011  RH  034%=      5-min Rain = 0
KST3 181945Z 29016KT 17/01 A2956 RMK A01 T01720009  RH  033%=      5-min Rain = 0
KST3 181946Z 29012KT 17/01 A2956 RMK A01 T01720009  RH  033%=      5-min Rain = 0
KST3 181947Z 30015KT 17/01 A2956 RMK A01 T01740011  RH  033%=      5-min Rain = 0
KST3 181948Z 30015KT 18/01 A2956 RMK A01 T01750008  RH  032%=      5-min Rain = 0
KST3 181949Z 30012KT 18/01 A2956 RMK A01 T01750009  RH  032%=      5-min Rain = 0
KST3 181950Z 30011KT 18/01 A2956 RMK A01 T01770009  RH  032%=      5-min Rain = 0
KST3 181951Z 29014G22KT 18/01 A2956 RMK A01 T01770011  RH  033%=      5-min Rain = 0
KST3 181952Z 29019KT 18/01 A2956 RMK A01 T01800011  RH  032%=      5-min Rain = 0
KST3 181953Z 29016KT 18/01 A2956 RMK A01 T01790010  RH  032%=      5-min Rain = 0
KST3 181954Z 29017KT 18/01 A2956 RMK A01 T01780011  RH  032%=      5-min Rain = 0
KST3 181955Z 30014KT 18/01 A2956 RMK A01 T01800010  RH  032%=      5-min Rain = 0
KST3 181956Z 32013KT 18/01 A2956 RMK A01 T01800009  RH  032%=      5-min Rain = 0
KST3 181957Z 31010KT 18/01 A2956 RMK A01 T01770009  RH  032%=      5-min Rain = 0
KST3 181958Z 31013G20KT 17/01 A2956 RMK A01 T01740009  RH  033%=      5-min Rain = 0
KST3 181959Z 33012KT 17/01 A2956 RMK A01 T01740009  RH  033%=      5-min Rain = 0
KST3 182000Z 34012KT 18/01 A2956 RMK A01 T01750009  RH  033%=      5-min Rain = 0
KST3 182001Z 34014KT 18/01 A2956 RMK A01 T01750011  RH  033%=      5-min Rain = 0
KST3 182002Z 34013KT 18/01 A2956 RMK A01 T01750012  RH  033%=      5-min Rain = 0
KST3 182003Z 33014KT 18/01 A2956 RMK A01 T01750012  RH  033%=      5-min Rain = 0
KST3 182004Z 34010G15KT 17/01 A2956 RMK A01 T01740010  RH  033%=      5-min Rain = 0
KST3 182005Z 32014G19KT 17/01 A2956 RMK A01 T01740012  RH  034%=      5-min Rain = 0
KST3 182006Z 31011KT 18/01 A2956 RMK A01 T01750012  RH  033%=      5-min Rain = 0
KST3 182007Z 32014KT 18/01 A2956 RMK A01 T01750013  RH  034%=      5-min Rain = 0
KST3 182008Z 32014KT 18/01 A2956 RMK A01 T01750013  RH  034%=      5-min Rain = 0
KST3 182009Z 32013KT 17/01 A2956 RMK A01 T01740012  RH  034%=      5-min Rain = 0
KST3 182010Z 32012KT 17/01 A2956 RMK A01 T01720012  RH  034%=      5-min Rain = 0
KST3 182011Z 34010KT 17/01 A2956 RMK A01 T01720012  RH  034%=      5-min Rain = 0
KST3 182012Z 30008KT 17/01 A2957 RMK A01 T01720013  RH  034%=      5-min Rain = 0
KST3 182013Z 29010KT 17/01 A2957 RMK A01 T01730013  RH  034%=      5-min Rain = 0
KST3 182014Z 30012KT 18/01 A2957 RMK A01 T01760012  RH  033%=      5-min Rain = 0
KST3 182015Z 32011KT 17/01 A2957 RMK A01 T01740010  RH  033%=      5-min Rain = 0
KST3 182016Z 32015KT 17/01 A2957 RMK A01 T01730010  RH  033%=      5-min Rain = 0
KST3 182017Z 32015KT 17/01 A2957 RMK A01 T01730008  RH  033%=      5-min Rain = 0
KST3 182018Z 32013KT 17/01 A2957 RMK A01 T01720007  RH  033%=      5-min Rain = 0
KST3 182019Z 32015KT 17/00 A2957 RMK A01 T01700004  RH  032%=      5-min Rain = 0
KST3 182020Z 32014KT 17/01 A2957 RMK A01 T01700006  RH  033%=      5-min Rain = 0
KST3 182021Z 33014KT 17/01 A2957 RMK A01 T01720008  RH  033%=      5-min Rain = 0
KST3 182022Z 32011KT 18/01 A2957 RMK A01 T01760009  RH  032%=      5-min Rain = 0
KST3 182023Z 33011KT 18/01 A2957 RMK A01 T01780009  RH  032%=      5-min Rain = 0
KST3 182024Z 32010KT 18/01 A2957 RMK A01 T01810010  RH  032%=      5-min Rain = 0
KST3 182025Z 34013KT 18/01 A2957 RMK A01 T01810010  RH  032%=      5-min Rain = 0
KST3 182026Z 32016KT 18/01 A2957 RMK A01 T01800008  RH  031%=      5-min Rain = 0
KST3 182027Z 33017KT 18/01 A2957 RMK A01 T01770006  RH  032%=      5-min Rain = 0
KST3 182028Z 33015KT 17/01 A2957 RMK A01 T01710007  RH  033%=      5-min Rain = 0
KST3 182029Z 33015KT 17/01 A2957 RMK A01 T01700011  RH  034%=      5-min Rain = 0
KST3 182030Z 33017KT 17/01 A2957 RMK A01 T01720008  RH  033%=      5-min Rain = 0
KST3 182031Z 32019KT 17/00 A2957 RMK A01 T01690003  RH  033%=      5-min Rain = 0
KST3 182032Z 33015KT 16/00 A2958 RMK A01 T01640004  RH  034%=      5-min Rain = 0
KST3 182033Z 32015KT 16/00 A2958 RMK A01 T01630004  RH  034%=      5-min Rain = 0
KST3 182034Z 31014KT 16/00 A2958 RMK A01 T01630004  RH  034%=      5-min Rain = 0
KST3 182035Z 33016KT 17/01 A2958 RMK A01 T01650005  RH  034%=      5-min Rain = 0
KST3 182036Z 33015KT 16/00 A2958 RMK A01 T01640004  RH  034%=      5-min Rain = 0
KST3 182037Z 33016KT 16/00 A2958 RMK A01 T01620004  RH  034%=      5-min Rain = 0
KST3 182038Z 33014KT 16/00 A2958 RMK A01 T01600003  RH  034%=      5-min Rain = 0
KST3 182039Z 34015KT 16/01 A2958 RMK A01 T01590008  RH  036%=      5-min Rain = 0
KST3 182040Z 34015G21KT 16/01 A2958 RMK A01 T01590012  RH  037%=      5-min Rain = 0
KST3 182041Z 34013KT 16/01 A2958 RMK A01 T01580012  RH  037%=      5-min Rain = 0
KST3 182042Z 35015KT 16/01 A2958 RMK A01 T01570014  RH  038%=      5-min Rain = 0
KST3 182043Z 36015KT 16/01 A2958 RMK A01 T01570014  RH  038%=      5-min Rain = 0
KST3 182044Z 35018KT 16/01 A2958 RMK A01 T01560014  RH  038%=      5-min Rain = 0
KST3 182045Z 36017KT 16/01 A2958 RMK A01 T01550013  RH  038%=      5-min Rain = 0
KST3 182046Z 36016KT 16/01 A2958 RMK A01 T01550011  RH  038%=      5-min Rain = 0
KST3 182047Z 00018KT 15/01 A2959 RMK A01 T01540011  RH  038%=      5-min Rain = 0
KST3 182048Z 35017KT 15/01 A2958 RMK A01 T01540009  RH  037%=      5-min Rain = 0
KST3 182049Z 35016KT 15/01 A2958 RMK A01 T01530007  RH  037%=      5-min Rain = 0
KST3 182050Z 35018KT 15/01 A2959 RMK A01 T01530006  RH  037%=      5-min Rain = 0
KST3 182051Z 00017KT 16/01 A2959 RMK A01 T01560006  RH  036%=      5-min Rain = 0
KST3 182052Z 00018KT 16/01 A2959 RMK A01 T01590005  RH  035%=      5-min Rain = 0
KST3 182053Z 36019KT 16/01 A2959 RMK A01 T01610005  RH  034%=      5-min Rain = 0
KST3 182054Z 35025G30KT 16/00 A2959 RMK A01 T01600003  RH  034%=      5-min Rain = 0
KST3 182055Z 01024G30KT 15/00 A2959 RMK A01 T01510001  RH  036%=      5-min Rain = 0
KST3 182056Z 01024G29KT 14/00 A2959 RMK A01 T01430001  RH  038%=      5-min Rain = 0
KST3 182057Z 00028KT 14/M00 A2959 RMK A01 T01371001  RH  039%=      5-min Rain = 0
KST3 182058Z 00027G33KT 13/M00 A296 RMK A01 T01311003  RH  040%=      5-min Rain = 0
KST3 182059Z 36029KT 13/M00 A296 RMK A01 T01271002  RH  041%=      5-min Rain = 0
KST3 182100Z 01027KT 13/M00 A296 RMK A01 T01251001  RH  042%=      5-min Rain = 0
KST3 182101Z 01029KT 12/M00 A296 RMK A01 T01221002  RH  043%=      5-min Rain = 0
KST3 182102Z 01027G32KT 12/M00 A296 RMK A01 T01181002  RH  044%=      5-min Rain = 0
KST3 182103Z 00026KT 12/M00 A296 RMK A01 T01161002  RH  044%=      5-min Rain = 0
KST3 182104Z 36026KT 12/M00 A296 RMK A01 T01151001  RH  045%=      5-min Rain = 0
KST3 182105Z 36027KT 12/00 A296 RMK A01 T01150001  RH  045%=      5-min Rain = 0
KST3 182106Z 36027KT 12/00 A2961 RMK A01 T01160001  RH  045%=      5-min Rain = 0
KST3 182107Z 00027KT 12/00 A2961 RMK A01 T01160001  RH  045%=      5-min Rain = 0
KST3 182108Z 00027KT 11/00 A2961 RMK A01 T01140002  RH  046%=      5-min Rain = 0
KST3 182109Z 00028KT 11/00 A2961 RMK A01 T01110002  RH  047%=      5-min Rain = 0
KST3 182110Z 35027KT 11/00 A2961 RMK A01 T01080002  RH  048%=      5-min Rain = 0
KST3 182111Z 36027KT 11/00 A2961 RMK A01 T01070003  RH  049%=      5-min Rain = 0
KST3 182112Z 00030G36KT 11/00 A2962 RMK A01 T01050003  RH  049%=      5-min Rain = 0
KST3 182113Z 00030KT 10/00 A2962 RMK A01 T01040004  RH  050%=      5-min Rain = 0
KST3 182114Z 01031KT 10/00 A2962 RMK A01 T01020004  RH  050%=      5-min Rain = 0
KST3 182115Z 01029KT 10/01 A2962 RMK A01 T01010005  RH  051%=      5-min Rain = 0
KST3 182116Z 01027G32KT 10/01 A2962 RMK A01 T01000005  RH  052%=      5-min Rain = 0
KST3 182117Z 01026G34KT 10/01 A2962 RMK A01 T01020007  RH  052%=      5-min Rain = 0
KST3 182118Z 01027G34KT 10/01 A2962 RMK A01 T01020007  RH  051%=      5-min Rain = 0
KST3 182119Z 01026G31KT 10/01 A2962 RMK A01 T01000006  RH  052%=      5-min Rain = 0
KST3 182120Z 01029G35KT 10/01 A2962 RMK A01 T00970005  RH  053%=      5-min Rain = 0
KST3 182121Z 00031KT 09/00 A2962 RMK A01 T00940003  RH  053%=      5-min Rain = 0
KST3 182122Z 00031G36KT 09/00 A2962 RMK A01 T00920003  RH  054%=      5-min Rain = 0
KST3 182123Z 36029KT 09/00 A2962 RMK A01 T00910004  RH  055%=      5-min Rain = 0
KST3 182124Z 36027G34KT 09/01 A2962 RMK A01 T00920006  RH  055%=      5-min Rain = 0
KST3 182125Z 00028G33KT 09/01 A2962 RMK A01 T00920007  RH  055%=      5-min Rain = 0
KST3 182126Z 36030KT 09/01 A2962 RMK A01 T00910007  RH  055%=      5-min Rain = 0
KST3 182127Z 00030KT 09/01 A2963 RMK A01 T00890006  RH  056%=      5-min Rain = 0
KST3 182128Z 36028G33KT 09/01 A2962 RMK A01 T00890007  RH  057%=      5-min Rain = 0
KST3 182129Z 00028G36KT 09/01 A2963 RMK A01 T00890007  RH  057%=      5-min Rain = 0
KST3 182130Z 00025G35KT 09/01 A2963 RMK A01 T00890007  RH  056%=      5-min Rain = 0
KST3 182131Z 01028G34KT 09/01 A2963 RMK A01 T00900007  RH  056%=      5-min Rain = 0
KST3 182132Z 01031G36KT 09/01 A2963 RMK A01 T00880005  RH  056%=      5-min Rain = 0
KST3 182133Z 00028G33KT 09/01 A2963 RMK A01 T00860006  RH  057%=      5-min Rain = 0
KST3 182134Z 00024KT 09/01 A2963 RMK A01 T00860007  RH  058%=      5-min Rain = 0
KST3 182135Z 00028G33KT 09/01 A2963 RMK A01 T00890006  RH  056%=      5-min Rain = 0
KST3 182136Z 00027G34KT 09/01 A2963 RMK A01 T00880005  RH  056%=      5-min Rain = 0
KST3 182137Z 00028G33KT 09/01 A2963 RMK A01 T00860005  RH  057%=      5-min Rain = 0
KST3 182138Z 00031G37KT 08/01 A2963 RMK A01 T00840005  RH  058%=      5-min Rain = 0
KST3 182139Z 01031G39KT 08/00 A2963 RMK A01 T00810004  RH  058%=      5-min Rain = 0
KST3 182140Z 01034KT 08/00 A2963 RMK A01 T00790004  RH  059%=      5-min Rain = 0
KST3 182141Z 00034KT 08/00 A2963 RMK A01 T00770003  RH  060%=      5-min Rain = 0
KST3 182142Z 01033KT 08/00 A2963 RMK A01 T00750003  RH  060%=      5-min Rain = 0
KST3 182143Z 01031KT 07/00 A2963 RMK A01 T00730003  RH  061%=      5-min Rain = 0
KST3 182144Z 01028G33KT 07/00 A2963 RMK A01 T00740004  RH  061%=      5-min Rain = 0
KST3 182145Z 36026G33KT 08/01 A2963 RMK A01 T00770006  RH  061%=      5-min Rain = 0
KST3 182146Z 00032KT 08/00 A2963 RMK A01 T00770004  RH  060%=      5-min Rain = 0
KST3 182147Z 00028KT 07/00 A2964 RMK A01 T00740002  RH  060%=      5-min Rain = 0
KST3 182148Z 35028G35KT 07/00 A2964 RMK A01 T00730003  RH  061%=      5-min Rain = 0
KST3 182149Z 35029KT 07/00 A2964 RMK A01 T00720003  RH  061%=      5-min Rain = 0
KST3 182150Z 35030KT 07/00 A2964 RMK A01 T00700003  RH  062%=      5-min Rain = 0
KST3 182151Z 00031G36KT 07/00 A2964 RMK A01 T00680002  RH  063%=      5-min Rain = 0
KST3 182152Z 00030G35KT 07/00 A2964 RMK A01 T00670002  RH  064%=      5-min Rain = 0
KST3 182153Z 00031KT 07/00 A2965 RMK A01 T00670003  RH  064%=      5-min Rain = 0
KST3 182154Z 36033KT 07/00 A2965 RMK A01 T00660002  RH  064%=      5-min Rain = 0
KST3 182155Z 36028G33KT 06/00 A2965 RMK A01 T00640001  RH  064%=      5-min Rain = 0
KST3 182156Z 35029G34KT 07/00 A2965 RMK A01 T00650001  RH  064%=      5-min Rain = 0
KST3 182157Z 35029G36KT 06/00 A2965 RMK A01 T006300-0  RH  064%=      5-min Rain = 0
KST3 182158Z 36031KT 06/00 A2965 RMK A01 T00620000  RH  064%=      5-min Rain = 0
KST3 182159Z 36031G36KT 06/M00 A2965 RMK A01 T00611001  RH  065%=      5-min Rain = 0
KST3 182200Z 36032KT 06/00 A2966 RMK A01 T005900-0  RH  066%=      5-min Rain = 0
KST3 182201Z 00032KT 06/00 A2966 RMK A01 T005700-0  RH  067%=      5-min Rain = 0
KST3 182202Z 36031G37KT 06/00 A2966 RMK A01 T005500-0  RH  068%=      5-min Rain = 0
KST3 182203Z 00028G34KT 05/00 A2966 RMK A01 T00530000  RH  069%=      5-min Rain = 0
KST3 182204Z 36032G38KT 05/00 A2966 RMK A01 T00530001  RH  069%=      5-min Rain = 0
KST3 182205Z 00032G37KT 05/00 A2966 RMK A01 T00530000  RH  069%=      5-min Rain = 0
KST3 182206Z 36031G37KT 05/00 A2966 RMK A01 T00520000  RH  069%=      5-min Rain = 0
KST3 182207Z 36027G33KT 05/00 A2966 RMK A01 T00520000  RH  069%=      5-min Rain = 0
KST3 182208Z 35030G35KT 05/00 A2966 RMK A01 T005000-0  RH  070%=      5-min Rain = 0
KST3 182209Z 35028G35KT 05/00 A2966 RMK A01 T004900-0  RH  070%=      5-min Rain = 0
KST3 182210Z 35028KT 05/M00 A2966 RMK A01 T00481001  RH  071%=      5-min Rain = 0
KST3 182211Z 36030G38KT 05/M00 A2967 RMK A01 T00461002  RH  071%=      5-min Rain = 0
KST3 182212Z 36031G40KT 05/M00 A2967 RMK A01 T00451002  RH  071%=      5-min Rain = 0
KST3 182213Z 36031G36KT 04/M00 A2967 RMK A01 T00441003  RH  071%=      5-min Rain = 0
KST3 182214Z 36031G38KT 04/M01 A2967 RMK A01 T00421005  RH  072%=      5-min Rain = 0
KST3 182215Z 36032G38KT 04/M01 A2968 RMK A01 T00411005  RH  072%=      5-min Rain = 0
KST3 182216Z 00031KT 04/M01 A2968 RMK A01 T00401005  RH  072%=      5-min Rain = 0
KST3 182217Z 00031G37KT 04/M01 A2968 RMK A01 T00391005  RH  073%=      5-min Rain = 0
KST3 182218Z 00032G37KT 04/M00 A2968 RMK A01 T00391004  RH  073%=      5-min Rain = 0
KST3 182219Z 36028G34KT 04/M00 A2968 RMK A01 T00391004  RH  073%=      5-min Rain = 0
KST3 182220Z 36028G33KT 04/M00 A2968 RMK A01 T00391004  RH  073%=      5-min Rain = 0
KST3 182221Z 36029G36KT 04/M00 A2968 RMK A01 T00391003  RH  074%=      5-min Rain = 0
KST3 182222Z 36031KT 04/M00 A2968 RMK A01 T00391003  RH  074%=      5-min Rain = 0
KST3 182223Z 35029KT 04/M00 A2968 RMK A01 T00391003  RH  074%=      5-min Rain = 0
KST3 182224Z 35026G31KT 04/M00 A2968 RMK A01 T00391003  RH  074%=      5-min Rain = 0
KST3 182225Z 00027G34KT 04/M00 A2968 RMK A01 T00391003  RH  074%=      5-min Rain = 0
KST3 182226Z 00032G38KT 04/M01 A2968 RMK A01 T00381005  RH  074%=      5-min Rain = 0
KST3 182227Z 00030G35KT 04/M01 A2969 RMK A01 T00361005  RH  074%=      5-min Rain = 0
KST3 182228Z 36030G35KT 04/M01 A2969 RMK A01 T00361005  RH  074%=      5-min Rain = 0
KST3 182229Z 35030G35KT 04/M01 A2969 RMK A01 T00351005  RH  075%=      5-min Rain = 0
KST3 182230Z 36026G31KT 04/M01 A2969 RMK A01 T00351005  RH  075%=      5-min Rain = 0
KST3 182231Z 00027G32KT 03/M01 A2969 RMK A01 T00341005  RH  075%=      5-min Rain = 0
KST3 182232Z 00029G35KT 03/M01 A2969 RMK A01 T00341005  RH  076%=      5-min Rain = 0
KST3 182233Z 00031KT 03/M00 A2969 RMK A01 T00341004  RH  076%=      5-min Rain = 0
KST3 182234Z 00030KT 03/M01 A2969 RMK A01 T00341005  RH  076%=      5-min Rain = 0
KST3 182235Z 00027G32KT 03/M00 A2969 RMK A01 T00341004  RH  076%=      5-min Rain = 0
KST3 182236Z 00029G35KT 03/M01 A2969 RMK A01 T00341005  RH  076%=      5-min Rain = 0
KST3 182237Z 00028G35KT 03/M00 A2969 RMK A01 T00341004  RH  076%=      5-min Rain = 0
KST3 182238Z 00031G36KT 03/M00 A2969 RMK A01 T00341004  RH  076%=      5-min Rain = 0
KST3 182239Z 00032KT 03/M01 A297 RMK A01 T00331005  RH  076%=      5-min Rain = 0
KST3 182240Z 36029G34KT 03/M01 A297 RMK A01 T00331005  RH  076%=      5-min Rain = 0
KST3 182241Z 35031G36KT 03/M01 A297 RMK A01 T00331005  RH  076%=      5-min Rain = 0
KST3 182242Z 36033G38KT 03/M01 A2969 RMK A01 T00321006  RH  076%=      5-min Rain = 0
KST3 182243Z 36031G37KT 03/M01 A297 RMK A01 T00321006  RH  076%=      5-min Rain = 0
KST3 182244Z 00027G32KT 03/M01 A297 RMK A01 T00311006  RH  077%=      5-min Rain = 0
KST3 182245Z 36029G37KT 03/M01 A297 RMK A01 T00311005  RH  077%=      5-min Rain = 0
KST3 182246Z 36028G34KT 03/M01 A297 RMK A01 T00321006  RH  077%=      5-min Rain = 0
KST3 182247Z 00029G36KT 03/M01 A297 RMK A01 T00321005  RH  077%=      5-min Rain = 0
KST3 182248Z 36025G31KT 03/M01 A297 RMK A01 T00311006  RH  077%=      5-min Rain = 0
KST3 182249Z 00024KT 03/M01 A297 RMK A01 T00311006  RH  077%=      5-min Rain = 0
KST3 182250Z 00024KT 03/M01 A297 RMK A01 T00311006  RH  076%=      5-min Rain = 0
KST3 182251Z 00027G35KT 03/M01 A297 RMK A01 T00311006  RH  076%=      5-min Rain = 0
KST3 182252Z 36028KT 03/M01 A297 RMK A01 T00311006  RH  077%=      5-min Rain = 0
KST3 182253Z 35030G36KT 03/M01 A2971 RMK A01 T00301006  RH  077%=      5-min Rain = 0
KST3 182254Z 35027G33KT 03/M01 A297 RMK A01 T00301006  RH  077%=      5-min Rain = 0
KST3 182255Z 36025KT 03/M01 A2971 RMK A01 T00301005  RH  078%=      5-min Rain = 0
KST3 182256Z 36027G33KT 03/M01 A2971 RMK A01 T00301005  RH  078%=      5-min Rain = 0
KST3 182257Z 36032G37KT 03/M01 A2971 RMK A01 T00301006  RH  077%=      5-min Rain = 0
KST3 182258Z 36033G38KT 03/M01 A297 RMK A01 T00291007  RH  077%=      5-min Rain = 0
KST3 182259Z 36034KT 03/M01 A2971 RMK A01 T00281008  RH  077%=      5-min Rain = 0
KST3 182300Z 36033G40KT 03/M01 A2971 RMK A01 T00271008  RH  077%=      5-min Rain = 0
KST3 182301Z 36033KT 03/M01 A2971 RMK A01 T00271008  RH  078%=      5-min Rain = 0
KST3 182302Z 36037G44KT 03/M01 A2971 RMK A01 T00261009  RH  078%=      5-min Rain = 0
KST3 182303Z 00036G42KT 03/M01 A297 RMK A01 T00261009  RH  078%=      5-min Rain = 0
KST3 182304Z 36033G38KT 03/M01 A297 RMK A01 T00251009  RH  078%=      5-min Rain = 0
KST3 182305Z 36031G36KT 03/M01 A2971 RMK A01 T00251009  RH  078%=      5-min Rain = 0
KST3 182306Z 00036G44KT 02/M01 A2971 RMK A01 T00241009  RH  079%=      5-min Rain = 0
KST3 182307Z 00035G43KT 02/M01 A2971 RMK A01 T00241009  RH  079%=      5-min Rain = 0
KST3 182308Z 00032G42KT 02/M01 A2971 RMK A01 T00231009  RH  079%=      5-min Rain = 0
KST3 182309Z 00031G40KT 02/M01 A2971 RMK A01 T00231009  RH  079%=      5-min Rain = 0
KST3 182310Z 00035G40KT 02/M01 A2971 RMK A01 T00241009  RH  079%=      5-min Rain = 0
KST3 182311Z 36032G42KT 02/M01 A2971 RMK A01 T00241009  RH  079%=      5-min Rain = 0
KST3 182312Z 01035KT 02/M01 A2971 RMK A01 T00241009  RH  079%=      5-min Rain = 0
KST3 182313Z 00036KT 02/M01 A2971 RMK A01 T00231010  RH  079%=      5-min Rain = 0
KST3 182314Z 01033G39KT 02/M01 A2971 RMK A01 T00231010  RH  079%=      5-min Rain = 0
KST3 182315Z 01029G36KT 02/M01 A2972 RMK A01 T00221011  RH  079%=      5-min Rain = 0
KST3 182316Z 01034G40KT 02/M01 A2972 RMK A01 T00221010  RH  079%=      5-min Rain = 0
KST3 182317Z 00036G41KT 02/M01 A2972 RMK A01 T00211010  RH  080%=      5-min Rain = 0
KST3 182318Z 00033G38KT 02/M01 A2972 RMK A01 T00211010  RH  080%=      5-min Rain = 0
KST3 182319Z 00034G39KT 02/M01 A2972 RMK A01 T00211010  RH  080%=      5-min Rain = 0
KST3 182320Z 00031G37KT 02/M01 A2972 RMK A01 T00211009  RH  081%=      5-min Rain = 0
KST3 182321Z 00029G37KT 02/M01 A2972 RMK A01 T00211009  RH  081%=      5-min Rain = 0
KST3 182322Z 00032KT 02/M01 A2972 RMK A01 T00211009  RH  081%=      5-min Rain = 0
KST3 182323Z 00029KT 02/M01 A2973 RMK A01 T00211009  RH  081%=      5-min Rain = 0
KST3 182324Z 00031G36KT 02/M01 A2973 RMK A01 T00211009  RH  081%=      5-min Rain = 0
KST3 182325Z 01029G37KT 02/M01 A2973 RMK A01 T00201009  RH  081%=      5-min Rain = 0
KST3 182326Z 01031G36KT 02/M01 A2973 RMK A01 T00201010  RH  081%=      5-min Rain = 0
KST3 182327Z 01032G40KT 02/M01 A2973 RMK A01 T00201010  RH  081%=      5-min Rain = 0
KST3 182328Z 01030G35KT 02/M01 A2973 RMK A01 T00191010  RH  081%=      5-min Rain = 0
KST3 182329Z 00033G39KT 02/M01 A2973 RMK A01 T00191010  RH  081%=      5-min Rain = 0
KST3 182330Z 00033G38KT 02/M01 A2973 RMK A01 T00191010  RH  081%=      5-min Rain = 0
KST3 182331Z 00031G36KT 02/M01 A2973 RMK A01 T00191011  RH  081%=      5-min Rain = 0
KST3 182332Z 01034G43KT 02/M01 A2974 RMK A01 T00181011  RH  081%=      5-min Rain = 0
KST3 182333Z 01033G39KT 02/M01 A2974 RMK A01 T00181012  RH  081%=      5-min Rain = 0
KST3 182334Z 00033G38KT 02/M01 A2974 RMK A01 T00181011  RH  081%=      5-min Rain = 0
KST3 182335Z 00034G41KT 02/M01 A2974 RMK A01 T00171011  RH  081%=      5-min Rain = 0
KST3 182336Z 00031G39KT 02/M01 A2974 RMK A01 T00171012  RH  081%=      5-min Rain = 0
KST3 182337Z 01034G42KT 02/M01 A2974 RMK A01 T00161012  RH  081%=      5-min Rain = 0
KST3 182338Z 00029G35KT 02/M01 A2975 RMK A01 T00161013  RH  081%=      5-min Rain = 0
KST3 182339Z 00036G43KT 02/M01 A2975 RMK A01 T00161013  RH  081%=      5-min Rain = 0
KST3 182340Z 00032G40KT 02/M01 A2975 RMK A01 T00151014  RH  081%=      5-min Rain = 0
KST3 182341Z 01034G41KT 01/M01 A2976 RMK A01 T00141014  RH  081%=      5-min Rain = 0
KST3 182342Z 01029KT 01/M02 A2976 RMK A01 T00141015  RH  081%=      5-min Rain = 0
KST3 182343Z 01032G37KT 01/M02 A2976 RMK A01 T00141015  RH  081%=      5-min Rain = 0
KST3 182344Z 00029G39KT 01/M02 A2976 RMK A01 T00141015  RH  081%=      5-min Rain = 0
KST3 182345Z 00021G26KT 01/M01 A2976 RMK A01 T00141014  RH  081%=      5-min Rain = 0
KST3 182346Z 00032G40KT 02/M01 A2977 RMK A01 T00151014  RH  081%=      5-min Rain = 0
KST3 182347Z 00031G37KT 01/M01 A2977 RMK A01 T00141014  RH  081%=      5-min Rain = 0
KST3 182348Z 35031G36KT 01/M01 A2977 RMK A01 T00141014  RH  082%=      5-min Rain = 0
KST3 182349Z 00026KT 01/M01 A2977 RMK A01 T00131014  RH  082%=      5-min Rain = 0
KST3 182350Z 36027KT 01/M01 A2977 RMK A01 T00131014  RH  082%=      5-min Rain = 0
KST3 182351Z 36030G35KT 01/M01 A2977 RMK A01 T00131014  RH  082%=      5-min Rain = 0
KST3 182352Z 36028G33KT 01/M01 A2978 RMK A01 T00131014  RH  082%=      5-min Rain = 0
KST3 182353Z 00028KT 01/M01 A2978 RMK A01 T00131014  RH  083%=      5-min Rain = 0
KST3 182354Z 36024G29KT 01/M01 A2978 RMK A01 T00121014  RH  083%=      5-min Rain = 0
KST3 182355Z 00029G36KT 01/M01 A2978 RMK A01 T00121014  RH  083%=      5-min Rain = 0
KST3 182356Z 00026G33KT 01/M01 A2978 RMK A01 T00121014  RH  083%=      5-min Rain = 0
KST3 182357Z 36031KT 01/M01 A2978 RMK A01 T00121014  RH  083%=      5-min Rain = 0
KST3 182358Z 00030KT 01/M02 A2979 RMK A01 T00111015  RH  083%=      5-min Rain = 0
KST3 182359Z 01027G34KT 01/M02 A2979 RMK A01 T00111015  RH  082%=      5-min Rain = 0
KST3 190000Z 00023KT 01/M02 A2979 RMK A01 T00121015  RH  082%=      5-min Rain = 0
KST3 190001Z 01028G35KT 01/M02 A2979 RMK A01 T00111015  RH  082%=      5-min Rain = 0
KST3 190002Z 01030G38KT 01/M02 A2979 RMK A01 T00111016  RH  082%=      5-min Rain = 0
KST3 190003Z 01032KT 01/M02 A2979 RMK A01 T00111016  RH  082%=      5-min Rain = 0
KST3 190004Z 01033G39KT 01/M02 A298 RMK A01 T00111016  RH  082%=      5-min Rain = 0
KST3 190005Z 00026G33KT 01/M02 A298 RMK A01 T00101017  RH  082%=      5-min Rain = 0
KST3 190006Z 01029G37KT 01/M02 A298 RMK A01 T00101017  RH  082%=      5-min Rain = 0
KST3 190007Z 01028G34KT 01/M02 A298 RMK A01 T00101017  RH  082%=      5-min Rain = 0
KST3 190008Z 01031KT 01/M02 A298 RMK A01 T00101017  RH  082%=      5-min Rain = 0
KST3 190009Z 01028KT 01/M02 A298 RMK A01 T00101017  RH  082%=      5-min Rain = 0
KST3 190010Z 01025G30KT 01/M02 A298 RMK A01 T00101017  RH  082%=      5-min Rain = 0
KST3 190011Z 01028G33KT 01/M02 A298 RMK A01 T00101017  RH  082%=      5-min Rain = 0
KST3 190012Z 00028KT 01/M02 A2981 RMK A01 T00101017  RH  082%=      5-min Rain = 0
KST3 190013Z 36023KT 01/M02 A2981 RMK A01 T00101017  RH  082%=      5-min Rain = 0
KST3 190014Z 00027KT 01/M02 A2981 RMK A01 T00111017  RH  082%=      5-min Rain = 0
KST3 190015Z 36028KT 01/M02 A2981 RMK A01 T00101017  RH  082%=      5-min Rain = 0
KST3 190016Z 36025KT 01/M02 A2981 RMK A01 T00101016  RH  083%=      5-min Rain = 0
KST3 190017Z 36021G26KT 01/M02 A2981 RMK A01 T00101015  RH  083%=      5-min Rain = 0
KST3 190018Z 36024KT 01/M02 A2981 RMK A01 T00101015  RH  083%=      5-min Rain = 0
KST3 190019Z 00023G30KT 01/M02 A2981 RMK A01 T00101016  RH  083%=      5-min Rain = 0
KST3 190020Z 36028KT 01/M02 A2981 RMK A01 T00111017  RH  082%=      5-min Rain = 0
KST3 190021Z 00027G35KT 01/M02 A2982 RMK A01 T00111017  RH  082%=      5-min Rain = 0
KST3 190022Z 00026G33KT 01/M02 A2982 RMK A01 T00101018  RH  082%=      5-min Rain = 0
KST3 190023Z 36027KT 01/M02 A2982 RMK A01 T00101018  RH  082%=      5-min Rain = 0
KST3 190024Z 36030G35KT 01/M02 A2982 RMK A01 T00101018  RH  081%=      5-min Rain = 0
KST3 190025Z 36021G27KT 01/M02 A2982 RMK A01 T00101018  RH  081%=      5-min Rain = 0
KST3 190026Z 00023KT 01/M02 A2982 RMK A01 T00101018  RH  081%=      5-min Rain = 0
KST3 190027Z 36025G34KT 01/M02 A2983 RMK A01 T00101019  RH  081%=      5-min Rain = 0
KST3 190028Z 36028KT 01/M02 A2982 RMK A01 T00101020  RH  081%=      5-min Rain = 0
KST3 190029Z 36027KT 01/M02 A2983 RMK A01 T00101020  RH  080%=      5-min Rain = 0
KST3 190030Z 01031G36KT 01/M02 A2983 RMK A01 T00101020  RH  080%=      5-min Rain = 0
KST3 190031Z 00030G35KT 01/M02 A2983 RMK A01 T00101020  RH  080%=      5-min Rain = 0
KST3 190032Z 36027G32KT 01/M02 A2983 RMK A01 T00101020  RH  080%=      5-min Rain = 0
KST3 190033Z 00025G34KT 01/M02 A2983 RMK A01 T00101020  RH  080%=      5-min Rain = 0
KST3 190034Z 36032G39KT 01/M02 A2983 RMK A01 T00101020  RH  081%=      5-min Rain = 0
KST3 190035Z 36031G38KT 01/M02 A2983 RMK A01 T00101020  RH  081%=      5-min Rain = 0
KST3 190036Z 01034KT 01/M02 A2983 RMK A01 T00101019  RH  081%=      5-min Rain = 0
KST3 190037Z 00029G34KT 01/M02 A2983 RMK A01 T00091019  RH  081%=      5-min Rain = 0
KST3 190038Z 00029G35KT 01/M02 A2983 RMK A01 T00091019  RH  082%=      5-min Rain = 0
KST3 190039Z 35028KT 01/M02 A2983 RMK A01 T00091019  RH  082%=      5-min Rain = 0
KST3 190040Z 36024G29KT 01/M02 A2984 RMK A01 T00091018  RH  082%=      5-min Rain = 0
KST3 190041Z 35026G31KT 01/M02 A2984 RMK A01 T00091018  RH  082%=      5-min Rain = 0
KST3 190042Z 35026G34KT 01/M02 A2984 RMK A01 T00091018  RH  082%=      5-min Rain = 0
KST3 190043Z 01030G39KT 01/M02 A2984 RMK A01 T00091018  RH  082%=      5-min Rain = 0
KST3 190044Z 36033G39KT 01/M02 A2984 RMK A01 T00091019  RH  082%=      5-min Rain = 0
KST3 190045Z 36030G35KT 01/M02 A2984 RMK A01 T00091019  RH  082%=      5-min Rain = 0
KST3 190046Z 35029G34KT 01/M02 A2985 RMK A01 T00081019  RH  082%=      5-min Rain = 0
KST3 190047Z 36028G39KT 01/M02 A2985 RMK A01 T00081019  RH  082%=      5-min Rain = 0
KST3 190048Z 36030G40KT 01/M02 A2985 RMK A01 T00081021  RH  081%=      5-min Rain = 0
KST3 190049Z 00026G32KT 01/M02 A2985 RMK A01 T00071022  RH  080%=      5-min Rain = 0
KST3 190050Z 00030G41KT 01/M02 A2985 RMK A01 T00071023  RH  080%=      5-min Rain = 0
KST3 190051Z 36032G39KT 01/M02 A2985 RMK A01 T00071023  RH  080%=      5-min Rain = 0
KST3 190052Z 35028G35KT 01/M02 A2985 RMK A01 T00061023  RH  081%=      5-min Rain = 0
KST3 190053Z 36033KT 01/M02 A2985 RMK A01 T00061023  RH  081%=      5-min Rain = 0
KST3 190054Z 35031KT 01/M02 A2985 RMK A01 T00061022  RH  081%=      5-min Rain = 0
KST3 190055Z 00029G34KT 01/M02 A2985 RMK A01 T00051022  RH  082%=      5-min Rain = 0
KST3 190056Z 00027G32KT 01/M02 A2986 RMK A01 T00051021  RH  083%=      5-min Rain = 0
KST3 190057Z 00029G36KT 01/M02 A2986 RMK A01 T00051020  RH  083%=      5-min Rain = 0
KST3 190058Z 00028G35KT 01/M02 A2986 RMK A01 T00051020  RH  084%=      5-min Rain = 0
KST3 190059Z 36033KT 00/M02 A2986 RMK A01 T00041019  RH  084%=      5-min Rain = 0
KST3 190100Z 36029G35KT 01/M02 A2986 RMK A01 T00051019  RH  084%=      5-min Rain = 0
KST3 190101Z 36026KT 00/M02 A2986 RMK A01 T00041019  RH  084%=      5-min Rain = 0
KST3 190102Z 36029G34KT 00/M02 A2986 RMK A01 T00041019  RH  085%=      5-min Rain = 0
KST3 190103Z 35024G29KT 00/M02 A2986 RMK A01 T00041019  RH  084%=      5-min Rain = 0
KST3 190104Z 36028G33KT 00/M02 A2986 RMK A01 T00041019  RH  085%=      5-min Rain = 0
KST3 190105Z 35026G34KT 00/M02 A2986 RMK A01 T00041019  RH  085%=      5-min Rain = 0
KST3 190106Z 35026G32KT 00/M02 A2987 RMK A01 T00041019  RH  084%=      5-min Rain = 0
KST3 190107Z 00029KT 00/M02 A2987 RMK A01 T00041019  RH  085%=      5-min Rain = 0
KST3 190108Z 35031G37KT 00/M02 A2987 RMK A01 T00041019  RH  084%=      5-min Rain = 0
KST3 190109Z 36031G36KT 00/M02 A2987 RMK A01 T00041020  RH  084%=      5-min Rain = 0
KST3 190110Z 36034KT 00/M02 A2987 RMK A01 T00041020  RH  084%=      5-min Rain = 0
KST3 190111Z 36034KT 00/M02 A2987 RMK A01 T00041020  RH  084%=      5-min Rain = 0
KST3 190112Z 36028G36KT 00/M02 A2987 RMK A01 T00041020  RH  084%=      5-min Rain = 0
KST3 190113Z 36030G37KT 00/M02 A2988 RMK A01 T00031020  RH  084%=      5-min Rain = 0
KST3 190114Z 35031KT 00/M02 A2987 RMK A01 T00031020  RH  084%=      5-min Rain = 0
KST3 190115Z 36029G34KT 00/M02 A2987 RMK A01 T00031020  RH  085%=      5-min Rain = 0
KST3 190116Z 00026G37KT 00/M02 A2988 RMK A01 T00031019  RH  085%=      5-min Rain = 0
KST3 190117Z 36028G33KT 00/M02 A2988 RMK A01 T00031019  RH  086%=      5-min Rain = 0
KST3 190118Z 35028G33KT 00/M02 A2988 RMK A01 T00021019  RH  086%=      5-min Rain = 0
KST3 190119Z 36022G27KT 00/M02 A2988 RMK A01 T00021018  RH  086%=      5-min Rain = 0
KST3 190120Z 36027KT 00/M02 A2988 RMK A01 T00021017  RH  087%=      5-min Rain = 0
KST3 190121Z 36025KT 00/M02 A2988 RMK A01 T00021017  RH  087%=      5-min Rain = 0
KST3 190122Z 36025KT 00/M02 A2988 RMK A01 T00021016  RH  087%=      5-min Rain = 0
KST3 190123Z 36025KT 00/M02 A2988 RMK A01 T00021016  RH  088%=      5-min Rain = 0
KST3 190124Z 36025KT 00/M02 A2988 RMK A01 T00011015  RH  088%=      5-min Rain = 0
KST3 190125Z 36024KT 00/M02 A2988 RMK A01 T00011015  RH  089%=      5-min Rain = 0
KST3 190126Z 00026KT 00/M02 A2988 RMK A01 T00011015  RH  089%=      5-min Rain = 0
KST3 190127Z 35025KT 00/M02 A2988 RMK A01 T00011016  RH  089%=      5-min Rain = 0
KST3 190128Z 35026G31KT 00/M02 A2989 RMK A01 T00011016  RH  089%=      5-min Rain = 0
KST3 190129Z 35023G29KT 00/M02 A2989 RMK A01 T00011016  RH  089%=      5-min Rain = 0
KST3 190130Z 35021G28KT 00/02 A2989 RMK A01 T00000-15  RH  089%=      5-min Rain = 0
KST3 190131Z 00026G32KT 00/02 A2989 RMK A01 T00000-15  RH  089%=      5-min Rain = 0
KST3 190132Z 36025G32KT 00/02 A2989 RMK A01 T00000-15  RH  089%=      5-min Rain = 0
KST3 190133Z 36025G31KT 00/02 A2989 RMK A01 T00000-15  RH  090%=      5-min Rain = 0
KST3 190134Z 36027KT M00/M02 A2989 RMK A01 T10011015  RH  090%=      5-min Rain = 0
KST3 190135Z 35026G31KT 00/02 A2989 RMK A01 T00-00-15  RH  090%=      5-min Rain = 0
KST3 190136Z 35028KT M00/M02 A2989 RMK A01 T10011015  RH  090%=      5-min Rain = 0
KST3 190137Z 36027KT M00/M02 A2989 RMK A01 T10011015  RH  090%=      5-min Rain = 0
KST3 190138Z 36023G28KT M00/M01 A299 RMK A01 T10011014  RH  091%=      5-min Rain = 0
KST3 190139Z 36023KT M00/M01 A299 RMK A01 T10021014  RH  091%=      5-min Rain = 0
KST3 190140Z 36028KT M00/M01 A299 RMK A01 T10021014  RH  092%=      5-min Rain = 0
KST3 190141Z 36028G35KT M00/M01 A299 RMK A01 T10021014  RH  092%=      5-min Rain = 0
KST3 190142Z 00029G36KT M00/M02 A299 RMK A01 T10031015  RH  092%=      5-min Rain = 0
KST3 190143Z 36026G33KT M00/M02 A299 RMK A01 T10031015  RH  091%=      5-min Rain = 0
KST3 190144Z 36025G30KT M00/M02 A299 RMK A01 T10031015  RH  092%=      5-min Rain = 0
KST3 190145Z 36026G32KT M00/M02 A299 RMK A01 T10031015  RH  092%=      5-min Rain = 0
KST3 190146Z 36026G34KT M00/M02 A299 RMK A01 T10031015  RH  092%=      5-min Rain = 0
KST3 190147Z 36030G35KT M00/M02 A299 RMK A01 T10041015  RH  092%=      5-min Rain = 0
KST3 190148Z 00027G32KT M00/M02 A2991 RMK A01 T10041015  RH  092%=      5-min Rain = 0
KST3 190149Z 00030G35KT M00/M02 A2991 RMK A01 T10041015  RH  092%=      5-min Rain = 0
KST3 190150Z 35028G33KT M00/M02 A2991 RMK A01 T10041015  RH  092%=      5-min Rain = 0
KST3 190151Z 01027G32KT M00/M02 A2991 RMK A01 T10041015  RH  092%=      5-min Rain = 0
KST3 190152Z 00032G37KT M00/M02 A2991 RMK A01 T10041015  RH  092%=      5-min Rain = 0
KST3 190153Z 36028KT M00/M02 A2991 RMK A01 T10041015  RH  092%=      5-min Rain = 0
KST3 190154Z 01027G33KT M01/M02 A2991 RMK A01 T10051015  RH  092%=      5-min Rain = 0
KST3 190155Z 36029G36KT M01/M02 A2991 RMK A01 T10051015  RH  093%=      5-min Rain = 0
KST3 190156Z 00029G35KT M01/M02 A2991 RMK A01 T10051016  RH  093%=      5-min Rain = 0
KST3 190157Z 36024KT M01/M02 A2991 RMK A01 T10051015  RH  093%=      5-min Rain = 0
KST3 190158Z 00024G29KT M01/M02 A2991 RMK A01 T10051015  RH  093%=      5-min Rain = 0
KST3 190159Z 00027G32KT M01/M01 A2991 RMK A01 T10051014  RH  094%=      5-min Rain = 0
KST3 190200Z 00028G34KT M01/M01 A2991 RMK A01 T10051014  RH  094%=      5-min Rain = 0
KST3 190201Z 00028G33KT M01/M02 A2991 RMK A01 T10061015  RH  094%=      5-min Rain = 0
KST3 190202Z 00027KT M01/M02 A2991 RMK A01 T10061015  RH  094%=      5-min Rain = 0
KST3 190203Z 00026KT M01/M02 A2992 RMK A01 T10061015  RH  094%=      5-min Rain = 0
KST3 190204Z 00032G38KT M01/M02 A2991 RMK A01 T10061015  RH  094%=      5-min Rain = 0
KST3 190205Z 00029KT M01/M02 A2992 RMK A01 T10071016  RH  094%=      5-min Rain = 0
KST3 190206Z 00027G32KT M01/M02 A2992 RMK A01 T10071016  RH  093%=      5-min Rain = 0
KST3 190207Z 00029G34KT M01/M02 A2992 RMK A01 T10071016  RH  094%=      5-min Rain = 0
KST3 190208Z 36029G34KT M01/M02 A2992 RMK A01 T10071016  RH  094%=      5-min Rain = 0
KST3 190209Z 00024KT M01/M02 A2992 RMK A01 T10071016  RH  094%=      5-min Rain = 0
KST3 190210Z 36024G33KT M01/M02 A2992 RMK A01 T10071016  RH  094%=      5-min Rain = 0
KST3 190211Z 00029G35KT M01/M02 A2992 RMK A01 T10071016  RH  094%=      5-min Rain = 0
KST3 190212Z 36025G35KT M01/M02 A2992 RMK A01 T10071016  RH  094%=      5-min Rain = 0
KST3 190213Z 36026G35KT M01/M02 A2992 RMK A01 T10071015  RH  094%=      5-min Rain = 0
KST3 190214Z 36026KT M01/M02 A2992 RMK A01 T10071015  RH  094%=      5-min Rain = 0
KST3 190215Z 00027G33KT M01/M02 A2992 RMK A01 T10071015  RH  094%=      5-min Rain = 0
KST3 190216Z 36028KT M01/M02 A2992 RMK A01 T10071016  RH  094%=      5-min Rain = 0
KST3 190217Z 36025KT M01/M02 A2992 RMK A01 T10071016  RH  094%=      5-min Rain = 0
KST3 190218Z 00026G33KT M01/M02 A2992 RMK A01 T10071015  RH  094%=      5-min Rain = 0
KST3 190219Z 36024KT M01/M02 A2992 RMK A01 T10071015  RH  094%=      5-min Rain = 0
KST3 190220Z 36024G32KT M01/M02 A2992 RMK A01 T10061015  RH  094%=      5-min Rain = 0
KST3 190221Z 35026G31KT M01/M01 A2992 RMK A01 T10061014  RH  094%=      5-min Rain = 0
KST3 190222Z 35028G35KT M01/M01 A2992 RMK A01 T10061014  RH  094%=      5-min Rain = 0
KST3 190223Z 35026G31KT M01/M02 A2992 RMK A01 T10051015  RH  093%=      5-min Rain = 0
KST3 190224Z 36025KT M01/M02 A2992 RMK A01 T10051015  RH  093%=      5-min Rain = 0
KST3 190225Z 36022KT M01/M02 A2992 RMK A01 T10051015  RH  093%=      5-min Rain = 0
KST3 190226Z 35027KT M01/M02 A2992 RMK A01 T10051015  RH  093%=      5-min Rain = 0
KST3 190227Z 35028G33KT M01/M02 A2992 RMK A01 T10051016  RH  093%=      5-min Rain = 0
KST3 190228Z 35029G40KT M01/M02 A2992 RMK A01 T10051016  RH  092%=      5-min Rain = 0
KST3 190229Z 35031KT M01/M02 A2993 RMK A01 T10051017  RH  092%=      5-min Rain = 0
KST3 190230Z 35034G42KT M01/M02 A2992 RMK A01 T10051018  RH  091%=      5-min Rain = 0
KST3 190231Z 36031G36KT M01/M02 A2992 RMK A01 T10051019  RH  090%=      5-min Rain = 0
KST3 190232Z 35029G38KT M01/M02 A2993 RMK A01 T10051019  RH  090%=      5-min Rain = 0
KST3 190233Z 36031KT M01/M02 A2993 RMK A01 T10061020  RH  090%=      5-min Rain = 0
KST3 190234Z 36032G38KT M01/M02 A2993 RMK A01 T10051020  RH  090%=      5-min Rain = 0
KST3 190235Z 36029G35KT M01/M02 A2993 RMK A01 T10051021  RH  089%=      5-min Rain = 0
KST3 190236Z 35030G38KT M01/M02 A2993 RMK A01 T10061021  RH  090%=      5-min Rain = 0
KST3 190237Z 35034KT M01/M02 A2993 RMK A01 T10051021  RH  089%=      5-min Rain = 0
KST3 190238Z 36033G40KT M01/M02 A2993 RMK A01 T10061021  RH  089%=      5-min Rain = 0
KST3 190239Z 36033G38KT M01/M02 A2993 RMK A01 T10051021  RH  089%=      5-min Rain = 0
KST3 190240Z 36034KT M01/M02 A2993 RMK A01 T10061021  RH  089%=      5-min Rain = 0
KST3 190241Z 36030G37KT M01/M02 A2993 RMK A01 T10061021  RH  090%=      5-min Rain = 0
KST3 190242Z 36031KT M01/M02 A2993 RMK A01 T10071021  RH  090%=      5-min Rain = 0
KST3 190243Z 35030G37KT M01/M02 A2993 RMK A01 T10061020  RH  090%=      5-min Rain = 0
KST3 190244Z 36032G39KT M01/M02 A2993 RMK A01 T10061020  RH  090%=      5-min Rain = 0
KST3 190245Z 36031G38KT M01/M02 A2993 RMK A01 T10061021  RH  090%=      5-min Rain = 0
KST3 190246Z 00030KT M01/M02 A2993 RMK A01 T10061020  RH  090%=      5-min Rain = 0
KST3 190247Z 35031KT M01/M02 A2993 RMK A01 T10071020  RH  091%=      5-min Rain = 0
KST3 190248Z 35028G39KT M01/M02 A2994 RMK A01 T10071020  RH  091%=      5-min Rain = 0
KST3 190249Z 36033G38KT M01/M02 A2994 RMK A01 T10071020  RH  091%=      5-min Rain = 0
KST3 190250Z 36030G37KT M01/M02 A2994 RMK A01 T10071020  RH  091%=      5-min Rain = 0
KST3 190251Z 36034G39KT M01/M02 A2994 RMK A01 T10081020  RH  092%=      5-min Rain = 0
KST3 190252Z 36026G33KT M01/M02 A2994 RMK A01 T10081020  RH  092%=      5-min Rain = 0
KST3 190253Z 36031G37KT M01/M02 A2994 RMK A01 T10081020  RH  092%=      5-min Rain = 0
KST3 190254Z 36030G35KT M01/M02 A2994 RMK A01 T10081019  RH  092%=      5-min Rain = 0
KST3 190255Z 36026G31KT M01/M02 A2994 RMK A01 T10081019  RH  093%=      5-min Rain = 0
KST3 190256Z 36029G34KT M01/M02 A2994 RMK A01 T10081019  RH  093%=      5-min Rain = 0
KST3 190257Z 36028G36KT M01/M02 A2994 RMK A01 T10081018  RH  093%=      5-min Rain = 0
KST3 190258Z 36029KT M01/M02 A2994 RMK A01 T10091019  RH  093%=      5-min Rain = 0
KST3 190259Z 36026G33KT M01/M02 A2994 RMK A01 T10091018  RH  093%=      5-min Rain = 0
KST3 190300Z 36032G43KT M01/M02 A2994 RMK A01 T10091018  RH  094%=      5-min Rain = 0
KST3 190301Z 36031G40KT M01/M02 A2994 RMK A01 T10091018  RH  094%=      5-min Rain = 0
KST3 190302Z 36026KT M01/M02 A2995 RMK A01 T10091018  RH  093%=      5-min Rain = 0
KST3 190303Z 00028KT M01/M02 A2995 RMK A01 T10091018  RH  094%=      5-min Rain = 0
KST3 190304Z 36032KT M01/M02 A2995 RMK A01 T10101018  RH  094%=      5-min Rain = 0
KST3 190305Z 36033G38KT M01/M02 A2995 RMK A01 T10101018  RH  094%=      5-min Rain = 0
KST3 190306Z 00031G37KT M01/M02 A2995 RMK A01 T10101018  RH  094%=      5-min Rain = 0
KST3 190307Z 00030G39KT M01/M02 A2995 RMK A01 T10101018  RH  094%=      5-min Rain = 0
KST3 190308Z 36027G33KT M01/M02 A2995 RMK A01 T10111018  RH  095%=      5-min Rain = 0
KST3 190309Z 00028G35KT M01/M02 A2995 RMK A01 T10111018  RH  095%=      5-min Rain = 0
KST3 190310Z 00028G36KT M01/M02 A2996 RMK A01 T10111018  RH  095%=      5-min Rain = 0
KST3 190311Z 00027G32KT M01/M02 A2996 RMK A01 T10111017  RH  095%=      5-min Rain = 0
KST3 190312Z 36029KT M01/M02 A2995 RMK A01 T10111017  RH  096%=      5-min Rain = 0
KST3 190313Z 00028KT M01/M02 A2996 RMK A01 T10111017  RH  096%=      5-min Rain = 0
KST3 190314Z 01030G43KT M01/M02 A2996 RMK A01 T10111017  RH  096%=      5-min Rain = 0
KST3 190315Z 01040G46KT M01/M02 A2995 RMK A01 T10111018  RH  095%=      5-min Rain = 0
KST3 190316Z 01034G41KT M01/M02 A2996 RMK A01 T10111021  RH  093%=      5-min Rain = 0
KST3 190317Z 00037KT M01/M02 A2995 RMK A01 T10111022  RH  092%=      5-min Rain = 0
KST3 190318Z 36036G43KT M01/M02 A2996 RMK A01 T10111022  RH  092%=      5-min Rain = 0
KST3 190319Z 01035G43KT M01/M02 A2996 RMK A01 T10111022  RH  092%=      5-min Rain = 0
KST3 190320Z 36038KT M01/M02 A2996 RMK A01 T10121022  RH  093%=      5-min Rain = 0
KST3 190321Z 00032G38KT M01/M02 A2996 RMK A01 T10111022  RH  093%=      5-min Rain = 0
KST3 190322Z 00027G37KT M01/M02 A2996 RMK A01 T10111021  RH  093%=      5-min Rain = 0
KST3 190323Z 36031G38KT M01/M02 A2996 RMK A01 T10111021  RH  093%=      5-min Rain = 0
KST3 190324Z 00029G34KT M01/M02 A2996 RMK A01 T10121020  RH  094%=      5-min Rain = 0
KST3 190325Z 00023KT M01/M02 A2997 RMK A01 T10111019  RH  094%=      5-min Rain = 0
KST3 190326Z 00026G34KT M01/M02 A2997 RMK A01 T10121019  RH  095%=      5-min Rain = 0
KST3 190327Z 01026KT M01/M02 A2997 RMK A01 T10121019  RH  095%=      5-min Rain = 0
KST3 190328Z 36030KT M01/M02 A2997 RMK A01 T10121019  RH  095%=      5-min Rain = 0
KST3 190329Z 36029G34KT M01/M02 A2997 RMK A01 T10121019  RH  095%=      5-min Rain = 0
KST3 190330Z 00034G42KT M01/M02 A2997 RMK A01 T10121020  RH  095%=      5-min Rain = 0
KST3 190331Z 00037KT M01/M02 A2997 RMK A01 T10121020  RH  094%=      5-min Rain = 0
KST3 190332Z 36034G40KT M01/M02 A2997 RMK A01 T10121021  RH  094%=      5-min Rain = 0
KST3 190333Z 00031KT M01/M02 A2997 RMK A01 T10121020  RH  094%=      5-min Rain = 0
KST3 190334Z 00034G41KT M01/M02 A2997 RMK A01 T10121021  RH  094%=      5-min Rain = 0
KST3 190335Z 36031G36KT M01/M02 A2997 RMK A01 T10121021  RH  094%=      5-min Rain = 0
KST3 190336Z 36033G38KT M01/M02 A2997 RMK A01 T10121021  RH  094%=      5-min Rain = 0
KST3 190337Z 36032G39KT M01/M02 A2997 RMK A01 T10121021  RH  094%=      5-min Rain = 0
KST3 190338Z 00032KT M01/M02 A2997 RMK A01 T10121021  RH  093%=      5-min Rain = 0
KST3 190339Z 00033G39KT M01/M02 A2997 RMK A01 T10121021  RH  093%=      5-min Rain = 0
KST3 190340Z 00034G40KT M01/M02 A2997 RMK A01 T10121021  RH  093%=      5-min Rain = 0
KST3 190341Z 36031G36KT M01/M02 A2997 RMK A01 T10121021  RH  093%=      5-min Rain = 0
KST3 190342Z 00032KT M01/M02 A2997 RMK A01 T10121021  RH  094%=      5-min Rain = 0
KST3 190343Z 00032G37KT M01/M02 A2998 RMK A01 T10121021  RH  094%=      5-min Rain = 0
KST3 190344Z 36029G38KT M01/M02 A2997 RMK A01 T10121021  RH  094%=      5-min Rain = 0
KST3 190345Z 01029G34KT M01/M02 A2998 RMK A01 T10121021  RH  094%=      5-min Rain = 0
KST3 190346Z 00030G38KT M01/M02 A2998 RMK A01 T10121021  RH  094%=      5-min Rain = 0
KST3 190347Z 00029G35KT M01/M02 A2998 RMK A01 T10121021  RH  094%=      5-min Rain = 0
KST3 190348Z 00032G40KT M01/M02 A2998 RMK A01 T10121021  RH  094%=      5-min Rain = 0
KST3 190349Z 00034KT M01/M02 A2998 RMK A01 T10121021  RH  093%=      5-min Rain = 0
KST3 190350Z 00033G42KT M01/M02 A2998 RMK A01 T10111021  RH  093%=      5-min Rain = 0
KST3 190351Z 00033G39KT M01/M02 A2998 RMK A01 T10111021  RH  093%=      5-min Rain = 0
KST3 190352Z 36029G36KT M01/M02 A2998 RMK A01 T10111022  RH  093%=      5-min Rain = 0
KST3 190353Z 36028G34KT M01/M02 A2998 RMK A01 T10111021  RH  093%=      5-min Rain = 0
KST3 190354Z 00028G37KT M01/M02 A2998 RMK A01 T10121021  RH  093%=      5-min Rain = 0
KST3 190355Z 36034G39KT M01/M02 A2998 RMK A01 T10121021  RH  093%=      5-min Rain = 0
KST3 190356Z 00032G39KT M01/M02 A2998 RMK A01 T10121021  RH  093%=      5-min Rain = 0
KST3 190357Z 36028G36KT M01/M02 A2998 RMK A01 T10121021  RH  093%=      5-min Rain = 0
KST3 190358Z 00028G33KT M01/M02 A2998 RMK A01 T10121021  RH  094%=      5-min Rain = 0
KST3 190359Z 00029G34KT M01/M02 A2998 RMK A01 T10121020  RH  094%=      5-min Rain = 0
KST3 190400Z 00031KT M01/M02 A2998 RMK A01 T10121020  RH  094%=      5-min Rain = 0
KST3 190401Z 36028KT M01/M02 A2998 RMK A01 T10121020  RH  094%=      5-min Rain = 0
KST3 190402Z 00029KT M01/M02 A2998 RMK A01 T10121020  RH  094%=      5-min Rain = 0
KST3 190403Z 00028G33KT M01/M02 A2998 RMK A01 T10121020  RH  095%=      5-min Rain = 0
KST3 190404Z 00026G32KT M01/M02 A2998 RMK A01 T10121020  RH  095%=      5-min Rain = 0
KST3 190405Z 00031KT M01/M02 A2999 RMK A01 T10121020  RH  095%=      5-min Rain = 0
KST3 190406Z 00028G35KT M01/M02 A2999 RMK A01 T10121020  RH  094%=      5-min Rain = 0
KST3 190407Z 00030KT M01/M02 A2999 RMK A01 T10131020  RH  094%=      5-min Rain = 0
KST3 190408Z 00027KT M01/M02 A2999 RMK A01 T10121021  RH  094%=      5-min Rain = 0
KST3 190409Z 00025G32KT M01/M02 A2999 RMK A01 T10121020  RH  094%=      5-min Rain = 0
KST3 190410Z 01030KT M01/M02 A2999 RMK A01 T10121020  RH  094%=      5-min Rain = 0
KST3 190411Z 00029KT M01/M02 A2999 RMK A01 T10121020  RH  094%=      5-min Rain = 0
KST3 190412Z 00028KT M01/M02 A2999 RMK A01 T10121020  RH  094%=      5-min Rain = 0
KST3 190413Z 01028G34KT M01/M02 A2999 RMK A01 T10121021  RH  094%=      5-min Rain = 0
KST3 190414Z 00027G32KT M01/M02 A2999 RMK A01 T10121021  RH  094%=      5-min Rain = 0
KST3 190415Z 00026G31KT M01/M02 A2999 RMK A01 T10121021  RH  094%=      5-min Rain = 0
KST3 190416Z 00025G30KT M01/M02 A2999 RMK A01 T10121021  RH  094%=      5-min Rain = 0
KST3 190417Z 00024G29KT M01/M02 A2999 RMK A01 T10121021  RH  094%=      5-min Rain = 0
KST3 190418Z 00024G32KT M01/M02 A30 RMK A01 T10121020  RH  094%=      5-min Rain = 0
KST3 190419Z 01026KT M01/M02 A30 RMK A01 T10121020  RH  094%=      5-min Rain = 0
KST3 190420Z 00025KT M01/M02 A30 RMK A01 T10121021  RH  094%=      5-min Rain = 0
KST3 190421Z 36025G30KT M01/M02 A30 RMK A01 T10121021  RH  094%=      5-min Rain = 0
KST3 190422Z 01029G35KT M01/M02 A30 RMK A01 T10121021  RH  094%=      5-min Rain = 0
KST3 190423Z 01027G33KT M01/M02 A30 RMK A01 T10111021  RH  093%=      5-min Rain = 0
KST3 190424Z 00027G34KT M01/M02 A30 RMK A01 T10111021  RH  093%=      5-min Rain = 0
KST3 190425Z 00027KT M01/M02 A30 RMK A01 T10111020  RH  093%=      5-min Rain = 0
KST3 190426Z 00026G32KT M01/M02 A30 RMK A01 T10111021  RH  093%=      5-min Rain = 0
KST3 190427Z 00025KT M01/M02 A30 RMK A01 T10111020  RH  094%=      5-min Rain = 0
KST3 190428Z 36022G27KT M01/M02 A30 RMK A01 T10111020  RH  094%=      5-min Rain = 0
KST3 190429Z 00027KT M01/M02 A30 RMK A01 T10111020  RH  094%=      5-min Rain = 0
KST3 190430Z 00026KT M01/M02 A30 RMK A01 T10121020  RH  094%=      5-min Rain = 0
KST3 190431Z 00026G33KT M01/M02 A30 RMK A01 T10121020  RH  094%=      5-min Rain = 0
KST3 190432Z 00024G30KT M01/M02 A30 RMK A01 T10111020  RH  094%=      5-min Rain = 0
KST3 190433Z 00021KT M01/M02 A30 RMK A01 T10111020  RH  094%=      5-min Rain = 0
KST3 190434Z 36021G28KT M01/M02 A30 RMK A01 T10111020  RH  094%=      5-min Rain = 0
KST3 190435Z 00026KT M01/M02 A30 RMK A01 T10111019  RH  094%=      5-min Rain = 0
KST3 190436Z 00021KT M01/M02 A30 RMK A01 T10111019  RH  094%=      5-min Rain = 0
KST3 190437Z 00021G26KT M01/M02 A30 RMK A01 T10111019  RH  094%=      5-min Rain = 0
KST3 190438Z 00028G33KT M01/M02 A30 RMK A01 T10111019  RH  094%=      5-min Rain = 0
KST3 190439Z 00024G31KT M01/M02 A30 RMK A01 T10101019  RH  094%=      5-min Rain = 0
KST3 190440Z 00023G32KT M01/M02 A30 RMK A01 T10101019  RH  094%=      5-min Rain = 0
KST3 190441Z 00026KT M01/M02 A30 RMK A01 T10101019  RH  094%=      5-min Rain = 0
KST3 190442Z 00028G33KT M01/M02 A3001 RMK A01 T10101019  RH  094%=      5-min Rain = 0
KST3 190443Z 00025G30KT M01/M02 A3001 RMK A01 T10101019  RH  094%=      5-min Rain = 0
KST3 190444Z 00023KT M01/M02 A3001 RMK A01 T10101019  RH  094%=      5-min Rain = 0
KST3 190445Z 00023G29KT M01/M02 A3001 RMK A01 T10101018  RH  094%=      5-min Rain = 0
KST3 190446Z 00022G27KT M01/M02 A3001 RMK A01 T10101018  RH  094%=      5-min Rain = 0
KST3 190447Z 01023G29KT M01/M02 A3001 RMK A01 T10101018  RH  094%=      5-min Rain = 0
KST3 190448Z 01023KT M01/M02 A3001 RMK A01 T10101019  RH  094%=      5-min Rain = 0
KST3 190449Z 01021G27KT M01/M02 A3001 RMK A01 T10101018  RH  094%=      5-min Rain = 0
KST3 190450Z 01021G26KT M01/M02 A3001 RMK A01 T10101018  RH  094%=      5-min Rain = 0
KST3 190451Z 00022KT M01/M02 A3001 RMK A01 T10101018  RH  094%=      5-min Rain = 0
KST3 190452Z 00021G31KT M01/M02 A3001 RMK A01 T10101018  RH  094%=      5-min Rain = 0
KST3 190453Z 00026KT M01/M02 A3001 RMK A01 T10101018  RH  094%=      5-min Rain = 0
KST3 190454Z 00021G27KT M01/M02 A3001 RMK A01 T10091018  RH  094%=      5-min Rain = 0
KST3 190455Z 01018KT M01/M02 A3001 RMK A01 T10091018  RH  094%=      5-min Rain = 0
KST3 190456Z 36021G26KT M01/M02 A3001 RMK A01 T10091017  RH  094%=      5-min Rain = 0
KST3 190457Z 01024KT M01/M02 A3001 RMK A01 T10091017  RH  094%=      5-min Rain = 0
KST3 190458Z 01021G26KT M01/M02 A3001 RMK A01 T10091018  RH  094%=      5-min Rain = 0
KST3 190459Z 00025KT M01/M02 A3001 RMK A01 T10091017  RH  094%=      5-min Rain = 0
KST3 190500Z 00025KT M01/M02 A3002 RMK A01 T10091018  RH  094%=      5-min Rain = 0
KST3 190501Z 36019KT M01/M02 A3002 RMK A01 T10091018  RH  094%=      5-min Rain = 0
KST3 190502Z 00020KT M01/M02 A3002 RMK A01 T10091017  RH  094%=      5-min Rain = 0
KST3 190503Z 00023KT M01/M02 A3002 RMK A01 T10091017  RH  094%=      5-min Rain = 0
KST3 190504Z 00021KT M01/M02 A3002 RMK A01 T10091017  RH  094%=      5-min Rain = 0
KST3 190505Z 00020G26KT M01/M02 A3002 RMK A01 T10091017  RH  095%=      5-min Rain = 0
KST3 190506Z 01023KT M01/M02 A3002 RMK A01 T10091016  RH  095%=      5-min Rain = 0
KST3 190507Z 36022KT M01/M02 A3002 RMK A01 T10091016  RH  095%=      5-min Rain = 0
KST3 190508Z 00022G28KT M01/M02 A3002 RMK A01 T10091016  RH  095%=      5-min Rain = 0
KST3 190509Z 00027KT M01/M02 A3002 RMK A01 T10091016  RH  095%=      5-min Rain = 0
KST3 190510Z 36021KT M01/M02 A3002 RMK A01 T10091016  RH  095%=      5-min Rain = 0
KST3 190511Z 00022KT M01/M02 A3002 RMK A01 T10081016  RH  095%=      5-min Rain = 0
KST3 190512Z 00022KT M01/M02 A3003 RMK A01 T10081016  RH  095%=      5-min Rain = 0
KST3 190513Z 00023KT M01/M02 A3002 RMK A01 T10081016  RH  095%=      5-min Rain = 0
KST3 190514Z 36028G33KT M01/M02 A3002 RMK A01 T10081016  RH  095%=      5-min Rain = 0
KST3 190515Z 36029G36KT M01/M02 A3002 RMK A01 T10081016  RH  094%=      5-min Rain = 0
KST3 190516Z 35024KT M01/M02 A3002 RMK A01 T10071016  RH  094%=      5-min Rain = 0
KST3 190517Z 35029G37KT M01/M02 A3002 RMK A01 T10071016  RH  094%=      5-min Rain = 0
KST3 190518Z 36029KT M01/M02 A3002 RMK A01 T10071017  RH  093%=      5-min Rain = 0
KST3 190519Z 36033KT M01/M02 A3002 RMK A01 T10061017  RH  093%=      5-min Rain = 0
KST3 190520Z 00032G37KT M01/M02 A3002 RMK A01 T10071017  RH  093%=      5-min Rain = 0
KST3 190521Z 36027G32KT M01/M02 A3002 RMK A01 T10061017  RH  092%=      5-min Rain = 0
KST3 190522Z 36026G36KT M01/M02 A3002 RMK A01 T10061017  RH  092%=      5-min Rain = 0
KST3 190523Z 00029KT M01/M02 A3002 RMK A01 T10061017  RH  092%=      5-min Rain = 0
KST3 190524Z 36029G36KT M01/M02 A3002 RMK A01 T10061017  RH  092%=      5-min Rain = 0
KST3 190525Z 36027KT M01/M02 A3002 RMK A01 T10061017  RH  092%=      5-min Rain = 0
KST3 190526Z 36027G32KT M01/M02 A3002 RMK A01 T10061017  RH  092%=      5-min Rain = 0
KST3 190527Z 35030KT M01/M02 A3002 RMK A01 T10061017  RH  092%=      5-min Rain = 0
KST3 190528Z 36032G40KT M01/M02 A3002 RMK A01 T10061017  RH  092%=      5-min Rain = 0
KST3 190529Z 35034G39KT M01/M02 A3002 RMK A01 T10061017  RH  092%=      5-min Rain = 0
KST3 190530Z 36032G37KT M01/M02 A3002 RMK A01 T10071018  RH  092%=      5-min Rain = 0
KST3 190531Z 36034G39KT M01/M02 A3002 RMK A01 T10061019  RH  092%=      5-min Rain = 0
KST3 190532Z 35028G36KT M01/M02 A3002 RMK A01 T10061019  RH  091%=      5-min Rain = 0
KST3 190533Z 36029G34KT M01/M02 A3002 RMK A01 T10071019  RH  092%=      5-min Rain = 0
KST3 190534Z 35030G38KT M01/M02 A3002 RMK A01 T10071019  RH  092%=      5-min Rain = 0
KST3 190535Z 36029G36KT M01/M02 A3003 RMK A01 T10071019  RH  091%=      5-min Rain = 0
KST3 190536Z 35031KT M01/M02 A3003 RMK A01 T10071020  RH  091%=      5-min Rain = 0
KST3 190537Z 35028KT M01/M02 A3003 RMK A01 T10071021  RH  091%=      5-min Rain = 0
KST3 190538Z 35029KT M01/M02 A3003 RMK A01 T10071021  RH  091%=      5-min Rain = 0
KST3 190539Z 36031G36KT M01/M02 A3002 RMK A01 T10071021  RH  090%=      5-min Rain = 0
KST3 190540Z 35030G36KT M01/M02 A3002 RMK A01 T10071022  RH  090%=      5-min Rain = 0
KST3 190541Z 36030G36KT M01/M02 A3003 RMK A01 T10071023  RH  089%=      5-min Rain = 0
KST3 190542Z 35029G34KT M01/M02 A3003 RMK A01 T10081023  RH  089%=      5-min Rain = 0
KST3 190543Z 36029G36KT M01/M02 A3003 RMK A01 T10081023  RH  089%=      5-min Rain = 0
KST3 190544Z 36033G39KT M01/M02 A3003 RMK A01 T10081024  RH  089%=      5-min Rain = 0
KST3 190545Z 35027KT M01/M02 A3003 RMK A01 T10091024  RH  089%=      5-min Rain = 0
KST3 190546Z 36032G38KT M01/M02 A3003 RMK A01 T10091024  RH  090%=      5-min Rain = 0
KST3 190547Z 36029G35KT M01/M03 A3003 RMK A01 T10101025  RH  089%=      5-min Rain = 0
KST3 190548Z 35029G37KT M01/M03 A3003 RMK A01 T10101025  RH  090%=      5-min Rain = 0
KST3 190549Z 35031G36KT M01/M03 A3002 RMK A01 T10111026  RH  090%=      5-min Rain = 0
KST3 190550Z 35027G36KT M01/M03 A3003 RMK A01 T10111026  RH  089%=      5-min Rain = 0
KST3 190551Z 35030G36KT M01/M03 A3003 RMK A01 T10111026  RH  090%=      5-min Rain = 0
KST3 190552Z 36032KT M01/M03 A3003 RMK A01 T10111027  RH  089%=      5-min Rain = 0
KST3 190553Z 35033G38KT M01/M03 A3003 RMK A01 T10111027  RH  089%=      5-min Rain = 0
KST3 190554Z 35027G32KT M01/M03 A3003 RMK A01 T10111028  RH  088%=      5-min Rain = 0
KST3 190555Z 36033G39KT M01/M03 A3003 RMK A01 T10111028  RH  088%=      5-min Rain = 0
KST3 190556Z 35029KT M01/M03 A3003 RMK A01 T10121028  RH  088%=      5-min Rain = 0
KST3 190557Z 35026G31KT M01/M03 A3003 RMK A01 T10121028  RH  089%=      5-min Rain = 0
KST3 190558Z 35024G29KT M01/M03 A3003 RMK A01 T10121028  RH  089%=      5-min Rain = 0
KST3 190559Z 35028G41KT M01/M03 A3003 RMK A01 T10131028  RH  089%=      5-min Rain = 0

Page generated in 0.0721 seconds.